<?xml version="1.0" encoding="UTF-8" standalone="no" ?>
<gpx xmlns="http://www.topografix.com/GPX/1/1" xmlns:xsi="http://www.w3.org/2001/XMLSchema-instance" xsi:schemaLocation="http://www.topografix.com/GPX/1/1 http://www.topografix.com/GPX/1/1/gpx.xsd" version="1.1" creator="VisuGPX - https://www.visugpx.com">
  <metadata>
    <name>20160913_Balade à Lalouvesc</name>
    <desc><![CDATA[

20160913_Balade à Lalouvesc
Le bois de Versailles
Beau temps pour cette boucle autour du village de Lalouvesc Ardèche]]></desc>
  </metadata>
  <trk>
    <name><![CDATA[2016-09-13 14:52:46]]></name>
    <trkseg>
      <trkpt lat="45.11998" lon="4.53477">
        <ele>1093.64</ele>
        <time>2016-09-13T08:13:11Z</time>
      </trkpt>
      <trkpt lat="45.12" lon="4.53476">
        <ele>1093.64</ele>
        <time>2016-09-13T08:13:12Z</time>
      </trkpt>
      <trkpt lat="45.12002" lon="4.53474">
        <ele>1096.04</ele>
        <time>2016-09-13T08:13:17Z</time>
      </trkpt>
      <trkpt lat="45.12002" lon="4.53473">
        <ele>1094.12</ele>
        <time>2016-09-13T08:13:18Z</time>
      </trkpt>
      <trkpt lat="45.12005" lon="4.5347">
        <ele>1095.08</ele>
        <time>2016-09-13T08:13:39Z</time>
      </trkpt>
      <trkpt lat="45.12007" lon="4.53465">
        <ele>1093.16</ele>
        <time>2016-09-13T08:14:11Z</time>
      </trkpt>
      <trkpt lat="45.12013" lon="4.53476">
        <ele>1093.64</ele>
        <time>2016-09-13T08:14:28Z</time>
      </trkpt>
      <trkpt lat="45.12014" lon="4.5348">
        <ele>1092.2</ele>
        <time>2016-09-13T08:14:32Z</time>
      </trkpt>
      <trkpt lat="45.1201" lon="4.53485">
        <ele>1092.2</ele>
        <time>2016-09-13T08:14:45Z</time>
      </trkpt>
      <trkpt lat="45.12" lon="4.53491">
        <ele>1092.2</ele>
        <time>2016-09-13T08:14:59Z</time>
      </trkpt>
      <trkpt lat="45.11991" lon="4.53497">
        <ele>1093.64</ele>
        <time>2016-09-13T08:15:14Z</time>
      </trkpt>
      <trkpt lat="45.11981" lon="4.53502">
        <ele>1093.64</ele>
        <time>2016-09-13T08:15:28Z</time>
      </trkpt>
      <trkpt lat="45.11975" lon="4.53504">
        <ele>1091.71</ele>
        <time>2016-09-13T08:15:41Z</time>
      </trkpt>
      <trkpt lat="45.11966" lon="4.53507">
        <ele>1092.68</ele>
        <time>2016-09-13T08:15:54Z</time>
      </trkpt>
      <trkpt lat="45.11964" lon="4.53508">
        <ele>1092.68</ele>
        <time>2016-09-13T08:15:56Z</time>
      </trkpt>
      <trkpt lat="45.11952" lon="4.53513">
        <ele>1092.68</ele>
        <time>2016-09-13T08:16:12Z</time>
      </trkpt>
      <trkpt lat="45.11944" lon="4.53519">
        <ele>1091.23</ele>
        <time>2016-09-13T08:16:23Z</time>
      </trkpt>
      <trkpt lat="45.11943" lon="4.53519">
        <ele>1091.23</ele>
        <time>2016-09-13T08:16:24Z</time>
      </trkpt>
      <trkpt lat="45.11938" lon="4.53524">
        <ele>1092.68</ele>
        <time>2016-09-13T08:16:30Z</time>
      </trkpt>
      <trkpt lat="45.11927" lon="4.53535">
        <ele>1093.16</ele>
        <time>2016-09-13T08:16:46Z</time>
      </trkpt>
      <trkpt lat="45.11925" lon="4.53538">
        <ele>1093.16</ele>
        <time>2016-09-13T08:16:49Z</time>
      </trkpt>
      <trkpt lat="45.11923" lon="4.53542">
        <ele>1091.71</ele>
        <time>2016-09-13T08:16:52Z</time>
      </trkpt>
      <trkpt lat="45.11917" lon="4.53559">
        <ele>1091.71</ele>
        <time>2016-09-13T08:17:07Z</time>
      </trkpt>
      <trkpt lat="45.11916" lon="4.53567">
        <ele>1092.68</ele>
        <time>2016-09-13T08:17:13Z</time>
      </trkpt>
      <trkpt lat="45.11908" lon="4.5358">
        <ele>1092.68</ele>
        <time>2016-09-13T08:17:28Z</time>
      </trkpt>
      <trkpt lat="45.11898" lon="4.53582">
        <ele>1092.68</ele>
        <time>2016-09-13T08:17:41Z</time>
      </trkpt>
      <trkpt lat="45.11888" lon="4.53585">
        <ele>1092.68</ele>
        <time>2016-09-13T08:17:55Z</time>
      </trkpt>
      <trkpt lat="45.11877" lon="4.53586">
        <ele>1093.16</ele>
        <time>2016-09-13T08:18:11Z</time>
      </trkpt>
      <trkpt lat="45.11863" lon="4.53591">
        <ele>1093.64</ele>
        <time>2016-09-13T08:18:27Z</time>
      </trkpt>
      <trkpt lat="45.11851" lon="4.53592">
        <ele>1094.12</ele>
        <time>2016-09-13T08:18:44Z</time>
      </trkpt>
      <trkpt lat="45.11843" lon="4.53604">
        <ele>1094.12</ele>
        <time>2016-09-13T08:18:55Z</time>
      </trkpt>
      <trkpt lat="45.1185" lon="4.53622">
        <ele>1094.12</ele>
        <time>2016-09-13T08:19:10Z</time>
      </trkpt>
      <trkpt lat="45.11851" lon="4.53626">
        <ele>1094.12</ele>
        <time>2016-09-13T08:19:26Z</time>
      </trkpt>
      <trkpt lat="45.11852" lon="4.53632">
        <ele>1093.64</ele>
        <time>2016-09-13T08:19:54Z</time>
      </trkpt>
      <trkpt lat="45.1185" lon="4.53628">
        <ele>1092.2</ele>
        <time>2016-09-13T08:20:12Z</time>
      </trkpt>
      <trkpt lat="45.11849" lon="4.53631">
        <ele>1092.2</ele>
        <time>2016-09-13T08:20:52Z</time>
      </trkpt>
      <trkpt lat="45.1185" lon="4.53629">
        <ele>1092.2</ele>
        <time>2016-09-13T08:21:18Z</time>
      </trkpt>
      <trkpt lat="45.11846" lon="4.53625">
        <ele>1091.23</ele>
        <time>2016-09-13T08:21:37Z</time>
      </trkpt>
      <trkpt lat="45.11845" lon="4.53626">
        <ele>1092.68</ele>
        <time>2016-09-13T08:21:47Z</time>
      </trkpt>
      <trkpt lat="45.11842" lon="4.5363">
        <ele>1092.68</ele>
        <time>2016-09-13T08:22:06Z</time>
      </trkpt>
      <trkpt lat="45.11849" lon="4.53628">
        <ele>1092.68</ele>
        <time>2016-09-13T08:22:37Z</time>
      </trkpt>
      <trkpt lat="45.11847" lon="4.53627">
        <ele>1091.23</ele>
        <time>2016-09-13T08:22:45Z</time>
      </trkpt>
      <trkpt lat="45.11838" lon="4.53621">
        <ele>1092.2</ele>
        <time>2016-09-13T08:23:00Z</time>
      </trkpt>
      <trkpt lat="45.11832" lon="4.53614">
        <ele>1093.16</ele>
        <time>2016-09-13T08:23:16Z</time>
      </trkpt>
      <trkpt lat="45.11831" lon="4.53611">
        <ele>1091.23</ele>
        <time>2016-09-13T08:23:20Z</time>
      </trkpt>
      <trkpt lat="45.1183" lon="4.53603">
        <ele>1091.71</ele>
        <time>2016-09-13T08:23:34Z</time>
      </trkpt>
      <trkpt lat="45.11833" lon="4.53605">
        <ele>1092.68</ele>
        <time>2016-09-13T08:23:47Z</time>
      </trkpt>
      <trkpt lat="45.11836" lon="4.53602">
        <ele>1091.71</ele>
        <time>2016-09-13T08:23:56Z</time>
      </trkpt>
      <trkpt lat="45.11839" lon="4.53594">
        <ele>1093.16</ele>
        <time>2016-09-13T08:24:09Z</time>
      </trkpt>
      <trkpt lat="45.11838" lon="4.53594">
        <ele>1093.16</ele>
        <time>2016-09-13T08:24:10Z</time>
      </trkpt>
      <trkpt lat="45.11844" lon="4.53598">
        <ele>1092.68</ele>
        <time>2016-09-13T08:24:29Z</time>
      </trkpt>
      <trkpt lat="45.1184" lon="4.53592">
        <ele>1092.68</ele>
        <time>2016-09-13T08:24:53Z</time>
      </trkpt>
      <trkpt lat="45.11839" lon="4.53581">
        <ele>1093.16</ele>
        <time>2016-09-13T08:25:17Z</time>
      </trkpt>
      <trkpt lat="45.11841" lon="4.53567">
        <ele>1093.16</ele>
        <time>2016-09-13T08:25:47Z</time>
      </trkpt>
      <trkpt lat="45.11839" lon="4.53569">
        <ele>1093.16</ele>
        <time>2016-09-13T08:26:11Z</time>
      </trkpt>
      <trkpt lat="45.11834" lon="4.53573">
        <ele>1091.71</ele>
        <time>2016-09-13T08:26:24Z</time>
      </trkpt>
      <trkpt lat="45.1183" lon="4.53572">
        <ele>1092.2</ele>
        <time>2016-09-13T08:26:53Z</time>
      </trkpt>
      <trkpt lat="45.11837" lon="4.53581">
        <ele>1092.68</ele>
        <time>2016-09-13T08:27:13Z</time>
      </trkpt>
      <trkpt lat="45.11831" lon="4.53574">
        <ele>1092.68</ele>
        <time>2016-09-13T08:27:29Z</time>
      </trkpt>
      <trkpt lat="45.11827" lon="4.53565">
        <ele>1091.71</ele>
        <time>2016-09-13T08:27:44Z</time>
      </trkpt>
      <trkpt lat="45.11829" lon="4.53574">
        <ele>1091.71</ele>
        <time>2016-09-13T08:27:56Z</time>
      </trkpt>
      <trkpt lat="45.11832" lon="4.53589">
        <ele>1091.23</ele>
        <time>2016-09-13T08:28:12Z</time>
      </trkpt>
      <trkpt lat="45.11842" lon="4.53588">
        <ele>1090.75</ele>
        <time>2016-09-13T08:28:28Z</time>
      </trkpt>
      <trkpt lat="45.11851" lon="4.5359">
        <ele>1090.27</ele>
        <time>2016-09-13T08:28:44Z</time>
      </trkpt>
      <trkpt lat="45.11852" lon="4.53589">
        <ele>1089.31</ele>
        <time>2016-09-13T08:29:03Z</time>
      </trkpt>
      <trkpt lat="45.11854" lon="4.53595">
        <ele>1089.31</ele>
        <time>2016-09-13T08:29:29Z</time>
      </trkpt>
      <trkpt lat="45.11856" lon="4.53592">
        <ele>1088.83</ele>
        <time>2016-09-13T08:29:58Z</time>
      </trkpt>
      <trkpt lat="45.11864" lon="4.53596">
        <ele>1088.83</ele>
        <time>2016-09-13T08:30:16Z</time>
      </trkpt>
      <trkpt lat="45.11877" lon="4.53596">
        <ele>1088.83</ele>
        <time>2016-09-13T08:30:37Z</time>
      </trkpt>
      <trkpt lat="45.11882" lon="4.53594">
        <ele>1088.83</ele>
        <time>2016-09-13T08:30:55Z</time>
      </trkpt>
      <trkpt lat="45.11885" lon="4.53577">
        <ele>1088.35</ele>
        <time>2016-09-13T08:31:11Z</time>
      </trkpt>
      <trkpt lat="45.11899" lon="4.53577">
        <ele>1088.35</ele>
        <time>2016-09-13T08:31:28Z</time>
      </trkpt>
      <trkpt lat="45.11916" lon="4.5357">
        <ele>1088.35</ele>
        <time>2016-09-13T08:31:45Z</time>
      </trkpt>
      <trkpt lat="45.11922" lon="4.53563">
        <ele>1087.87</ele>
        <time>2016-09-13T08:32:00Z</time>
      </trkpt>
      <trkpt lat="45.11919" lon="4.53555">
        <ele>1087.87</ele>
        <time>2016-09-13T08:32:16Z</time>
      </trkpt>
      <trkpt lat="45.11916" lon="4.53551">
        <ele>1087.87</ele>
        <time>2016-09-13T08:32:21Z</time>
      </trkpt>
      <trkpt lat="45.11889" lon="4.53516">
        <ele>1087.87</ele>
        <time>2016-09-13T08:32:39Z</time>
      </trkpt>
      <trkpt lat="45.11886" lon="4.53514">
        <ele>1087.39</ele>
        <time>2016-09-13T08:32:57Z</time>
      </trkpt>
      <trkpt lat="45.11913" lon="4.53554">
        <ele>1086.91</ele>
        <time>2016-09-13T08:33:18Z</time>
      </trkpt>
      <trkpt lat="45.11916" lon="4.5355">
        <ele>1086.91</ele>
        <time>2016-09-13T08:33:41Z</time>
      </trkpt>
      <trkpt lat="45.11875" lon="4.53563">
        <ele>1086.91</ele>
        <time>2016-09-13T08:34:01Z</time>
      </trkpt>
      <trkpt lat="45.11903" lon="4.53533">
        <ele>1086.91</ele>
        <time>2016-09-13T08:34:03Z</time>
      </trkpt>
      <trkpt lat="45.11874" lon="4.53563">
        <ele>1086.91</ele>
        <time>2016-09-13T08:34:13Z</time>
      </trkpt>
      <trkpt lat="45.11878" lon="4.53513">
        <ele>1086.43</ele>
        <time>2016-09-13T08:34:17Z</time>
      </trkpt>
      <trkpt lat="45.11911" lon="4.53549">
        <ele>1086.91</ele>
        <time>2016-09-13T08:34:30Z</time>
      </trkpt>
      <trkpt lat="45.11922" lon="4.53538">
        <ele>1087.87</ele>
        <time>2016-09-13T08:34:48Z</time>
      </trkpt>
      <trkpt lat="45.11922" lon="4.53537">
        <ele>1087.87</ele>
        <time>2016-09-13T08:34:49Z</time>
      </trkpt>
      <trkpt lat="45.11928" lon="4.53531">
        <ele>1087.87</ele>
        <time>2016-09-13T08:34:58Z</time>
      </trkpt>
      <trkpt lat="45.11937" lon="4.53519">
        <ele>1087.87</ele>
        <time>2016-09-13T08:35:14Z</time>
      </trkpt>
      <trkpt lat="45.11943" lon="4.53512">
        <ele>1087.87</ele>
        <time>2016-09-13T08:35:30Z</time>
      </trkpt>
      <trkpt lat="45.11952" lon="4.53512">
        <ele>1087.87</ele>
        <time>2016-09-13T08:35:41Z</time>
      </trkpt>
      <trkpt lat="45.11975" lon="4.53508">
        <ele>1087.87</ele>
        <time>2016-09-13T08:36:04Z</time>
      </trkpt>
      <trkpt lat="45.11987" lon="4.53494">
        <ele>1087.87</ele>
        <time>2016-09-13T08:36:21Z</time>
      </trkpt>
      <trkpt lat="45.11988" lon="4.53484">
        <ele>1087.87</ele>
        <time>2016-09-13T08:36:36Z</time>
      </trkpt>
      <trkpt lat="45.11989" lon="4.53483">
        <ele>1087.87</ele>
        <time>2016-09-13T08:37:00Z</time>
      </trkpt>
      <trkpt lat="45.11988" lon="4.53484">
        <ele>1088.83</ele>
        <time>2016-09-13T08:37:27Z</time>
      </trkpt>
      <trkpt lat="45.11989" lon="4.53484">
        <ele>1088.83</ele>
        <time>2016-09-13T08:37:28Z</time>
      </trkpt>
      <trkpt lat="45.11991" lon="4.53483">
        <ele>1088.35</ele>
        <time>2016-09-13T08:37:55Z</time>
      </trkpt>
      <trkpt lat="45.11996" lon="4.53476">
        <ele>1087.39</ele>
        <time>2016-09-13T08:38:20Z</time>
      </trkpt>
      <trkpt lat="45.11992" lon="4.53461">
        <ele>1086.91</ele>
        <time>2016-09-13T08:38:36Z</time>
      </trkpt>
      <trkpt lat="45.11988" lon="4.53453">
        <ele>1085.47</ele>
        <time>2016-09-13T08:38:44Z</time>
      </trkpt>
      <trkpt lat="45.11987" lon="4.53443">
        <ele>1085.47</ele>
        <time>2016-09-13T08:38:51Z</time>
      </trkpt>
      <trkpt lat="45.11984" lon="4.53434">
        <ele>1084.99</ele>
        <time>2016-09-13T08:38:58Z</time>
      </trkpt>
      <trkpt lat="45.1198" lon="4.5341">
        <ele>1084.99</ele>
        <time>2016-09-13T08:39:15Z</time>
      </trkpt>
      <trkpt lat="45.11973" lon="4.53397">
        <ele>1084.5</ele>
        <time>2016-09-13T08:39:32Z</time>
      </trkpt>
      <trkpt lat="45.11973" lon="4.53397">
        <ele>1084.02</ele>
        <time>2016-09-13T08:39:59Z</time>
      </trkpt>
      <trkpt lat="45.11976" lon="4.53398">
        <ele>1084.5</ele>
        <time>2016-09-13T08:40:17Z</time>
      </trkpt>
      <trkpt lat="45.11975" lon="4.53399">
        <ele>1085.47</ele>
        <time>2016-09-13T08:40:55Z</time>
      </trkpt>
      <trkpt lat="45.11977" lon="4.53398">
        <ele>1084.02</ele>
        <time>2016-09-13T08:41:26Z</time>
      </trkpt>
      <trkpt lat="45.1198" lon="4.53398">
        <ele>1083.06</ele>
        <time>2016-09-13T08:42:07Z</time>
      </trkpt>
      <trkpt lat="45.11979" lon="4.53398">
        <ele>1084.5</ele>
        <time>2016-09-13T08:42:24Z</time>
      </trkpt>
      <trkpt lat="45.11977" lon="4.53397">
        <ele>1085.47</ele>
        <time>2016-09-13T08:43:01Z</time>
      </trkpt>
      <trkpt lat="45.11976" lon="4.53397">
        <ele>1084.02</ele>
        <time>2016-09-13T08:43:10Z</time>
      </trkpt>
      <trkpt lat="45.11975" lon="4.53397">
        <ele>1084.02</ele>
        <time>2016-09-13T08:43:32Z</time>
      </trkpt>
      <trkpt lat="45.11973" lon="4.53395">
        <ele>1083.54</ele>
        <time>2016-09-13T08:43:54Z</time>
      </trkpt>
      <trkpt lat="45.11974" lon="4.53396">
        <ele>1083.54</ele>
        <time>2016-09-13T08:44:07Z</time>
      </trkpt>
      <trkpt lat="45.11975" lon="4.53396">
        <ele>1084.99</ele>
        <time>2016-09-13T08:44:20Z</time>
      </trkpt>
      <trkpt lat="45.11974" lon="4.53397">
        <ele>1084.5</ele>
        <time>2016-09-13T08:44:39Z</time>
      </trkpt>
      <trkpt lat="45.11974" lon="4.53394">
        <ele>1084.02</ele>
        <time>2016-09-13T08:45:10Z</time>
      </trkpt>
      <trkpt lat="45.11974" lon="4.53395">
        <ele>1083.54</ele>
        <time>2016-09-13T08:45:35Z</time>
      </trkpt>
      <trkpt lat="45.1197" lon="4.53398">
        <ele>1084.99</ele>
        <time>2016-09-13T08:45:58Z</time>
      </trkpt>
      <trkpt lat="45.11972" lon="4.53398">
        <ele>1083.06</ele>
        <time>2016-09-13T08:46:29Z</time>
      </trkpt>
      <trkpt lat="45.1197" lon="4.53398">
        <ele>1084.02</ele>
        <time>2016-09-13T08:47:01Z</time>
      </trkpt>
      <trkpt lat="45.1197" lon="4.53398">
        <ele>1084.5</ele>
        <time>2016-09-13T08:47:32Z</time>
      </trkpt>
      <trkpt lat="45.1197" lon="4.53396">
        <ele>1083.54</ele>
        <time>2016-09-13T08:48:02Z</time>
      </trkpt>
      <trkpt lat="45.11971" lon="4.53397">
        <ele>1084.5</ele>
        <time>2016-09-13T08:48:38Z</time>
      </trkpt>
      <trkpt lat="45.11971" lon="4.53395">
        <ele>1084.5</ele>
        <time>2016-09-13T08:49:06Z</time>
      </trkpt>
      <trkpt lat="45.11976" lon="4.53398">
        <ele>1084.02</ele>
        <time>2016-09-13T08:49:13Z</time>
      </trkpt>
      <trkpt lat="45.11983" lon="4.53416">
        <ele>1084.02</ele>
        <time>2016-09-13T08:49:29Z</time>
      </trkpt>
      <trkpt lat="45.11993" lon="4.53438">
        <ele>1084.99</ele>
        <time>2016-09-13T08:49:47Z</time>
      </trkpt>
      <trkpt lat="45.11994" lon="4.5344">
        <ele>1084.99</ele>
        <time>2016-09-13T08:49:49Z</time>
      </trkpt>
      <trkpt lat="45.12" lon="4.53457">
        <ele>1084.99</ele>
        <time>2016-09-13T08:50:06Z</time>
      </trkpt>
      <trkpt lat="45.12006" lon="4.53476">
        <ele>1085.95</ele>
        <time>2016-09-13T08:50:24Z</time>
      </trkpt>
      <trkpt lat="45.12017" lon="4.5347">
        <ele>1087.39</ele>
        <time>2016-09-13T08:50:41Z</time>
      </trkpt>
      <trkpt lat="45.1203" lon="4.53456">
        <ele>1086.91</ele>
        <time>2016-09-13T08:50:59Z</time>
      </trkpt>
      <trkpt lat="45.1204" lon="4.53442">
        <ele>1088.35</ele>
        <time>2016-09-13T08:51:16Z</time>
      </trkpt>
      <trkpt lat="45.12043" lon="4.53435">
        <ele>1088.35</ele>
        <time>2016-09-13T08:51:22Z</time>
      </trkpt>
      <trkpt lat="45.12055" lon="4.53414">
        <ele>1088.35</ele>
        <time>2016-09-13T08:51:40Z</time>
      </trkpt>
      <trkpt lat="45.12065" lon="4.53392">
        <ele>1089.79</ele>
        <time>2016-09-13T08:51:57Z</time>
      </trkpt>
      <trkpt lat="45.12068" lon="4.53382">
        <ele>1089.79</ele>
        <time>2016-09-13T08:52:16Z</time>
      </trkpt>
      <trkpt lat="45.1207" lon="4.53379">
        <ele>1089.31</ele>
        <time>2016-09-13T08:52:38Z</time>
      </trkpt>
      <trkpt lat="45.12074" lon="4.53364">
        <ele>1090.27</ele>
        <time>2016-09-13T08:52:53Z</time>
      </trkpt>
      <trkpt lat="45.12074" lon="4.5335">
        <ele>1090.75</ele>
        <time>2016-09-13T08:53:07Z</time>
      </trkpt>
      <trkpt lat="45.1207" lon="4.53334">
        <ele>1091.71</ele>
        <time>2016-09-13T08:53:22Z</time>
      </trkpt>
      <trkpt lat="45.12062" lon="4.53321">
        <ele>1092.68</ele>
        <time>2016-09-13T08:53:37Z</time>
      </trkpt>
      <trkpt lat="45.12055" lon="4.53309">
        <ele>1093.64</ele>
        <time>2016-09-13T08:53:52Z</time>
      </trkpt>
      <trkpt lat="45.12044" lon="4.53294">
        <ele>1093.64</ele>
        <time>2016-09-13T08:54:08Z</time>
      </trkpt>
      <trkpt lat="45.12031" lon="4.53287">
        <ele>1096.04</ele>
        <time>2016-09-13T08:54:23Z</time>
      </trkpt>
      <trkpt lat="45.12017" lon="4.53262">
        <ele>1097</ele>
        <time>2016-09-13T08:54:41Z</time>
      </trkpt>
      <trkpt lat="45.12009" lon="4.53244">
        <ele>1098.44</ele>
        <time>2016-09-13T08:54:57Z</time>
      </trkpt>
      <trkpt lat="45.12006" lon="4.53222">
        <ele>1098.44</ele>
        <time>2016-09-13T08:55:15Z</time>
      </trkpt>
      <trkpt lat="45.12012" lon="4.53204">
        <ele>1098.92</ele>
        <time>2016-09-13T08:55:29Z</time>
      </trkpt>
      <trkpt lat="45.12025" lon="4.53185">
        <ele>1099.89</ele>
        <time>2016-09-13T08:55:48Z</time>
      </trkpt>
      <trkpt lat="45.12043" lon="4.53169">
        <ele>1100.37</ele>
        <time>2016-09-13T08:56:09Z</time>
      </trkpt>
      <trkpt lat="45.12061" lon="4.53157">
        <ele>1101.81</ele>
        <time>2016-09-13T08:56:26Z</time>
      </trkpt>
      <trkpt lat="45.12072" lon="4.53145">
        <ele>1102.29</ele>
        <time>2016-09-13T08:56:40Z</time>
      </trkpt>
      <trkpt lat="45.12088" lon="4.53127">
        <ele>1103.25</ele>
        <time>2016-09-13T08:56:59Z</time>
      </trkpt>
      <trkpt lat="45.12093" lon="4.5312">
        <ele>1104.21</ele>
        <time>2016-09-13T08:57:06Z</time>
      </trkpt>
      <trkpt lat="45.12103" lon="4.53096">
        <ele>1105.65</ele>
        <time>2016-09-13T08:57:25Z</time>
      </trkpt>
      <trkpt lat="45.12112" lon="4.53067">
        <ele>1106.61</ele>
        <time>2016-09-13T08:57:46Z</time>
      </trkpt>
      <trkpt lat="45.12119" lon="4.53045">
        <ele>1109.02</ele>
        <time>2016-09-13T08:58:04Z</time>
      </trkpt>
      <trkpt lat="45.12121" lon="4.53038">
        <ele>1109.5</ele>
        <time>2016-09-13T08:58:21Z</time>
      </trkpt>
      <trkpt lat="45.1212" lon="4.53035">
        <ele>1109.5</ele>
        <time>2016-09-13T08:58:56Z</time>
      </trkpt>
      <trkpt lat="45.12122" lon="4.53031">
        <ele>1109.5</ele>
        <time>2016-09-13T08:59:16Z</time>
      </trkpt>
      <trkpt lat="45.12124" lon="4.53007">
        <ele>1109.5</ele>
        <time>2016-09-13T08:59:34Z</time>
      </trkpt>
      <trkpt lat="45.12127" lon="4.5299">
        <ele>1110.46</ele>
        <time>2016-09-13T08:59:47Z</time>
      </trkpt>
      <trkpt lat="45.1213" lon="4.5296">
        <ele>1111.9</ele>
        <time>2016-09-13T09:00:06Z</time>
      </trkpt>
      <trkpt lat="45.12136" lon="4.5293">
        <ele>1113.34</ele>
        <time>2016-09-13T09:00:26Z</time>
      </trkpt>
      <trkpt lat="45.12139" lon="4.52914">
        <ele>1114.31</ele>
        <time>2016-09-13T09:00:37Z</time>
      </trkpt>
      <trkpt lat="45.12147" lon="4.52892">
        <ele>1115.75</ele>
        <time>2016-09-13T09:00:53Z</time>
      </trkpt>
      <trkpt lat="45.12157" lon="4.52865">
        <ele>1117.19</ele>
        <time>2016-09-13T09:01:12Z</time>
      </trkpt>
      <trkpt lat="45.12167" lon="4.52841">
        <ele>1118.15</ele>
        <time>2016-09-13T09:01:29Z</time>
      </trkpt>
      <trkpt lat="45.12177" lon="4.52817">
        <ele>1120.07</ele>
        <time>2016-09-13T09:01:46Z</time>
      </trkpt>
      <trkpt lat="45.12185" lon="4.52787">
        <ele>1121.03</ele>
        <time>2016-09-13T09:02:06Z</time>
      </trkpt>
      <trkpt lat="45.12191" lon="4.52764">
        <ele>1122.48</ele>
        <time>2016-09-13T09:02:23Z</time>
      </trkpt>
      <trkpt lat="45.12201" lon="4.52744">
        <ele>1123.92</ele>
        <time>2016-09-13T09:02:39Z</time>
      </trkpt>
      <trkpt lat="45.12201" lon="4.52734">
        <ele>1124.4</ele>
        <time>2016-09-13T09:02:54Z</time>
      </trkpt>
      <trkpt lat="45.12202" lon="4.52734">
        <ele>1124.4</ele>
        <time>2016-09-13T09:02:55Z</time>
      </trkpt>
      <trkpt lat="45.12202" lon="4.52735">
        <ele>1122</ele>
        <time>2016-09-13T09:03:02Z</time>
      </trkpt>
      <trkpt lat="45.12202" lon="4.52735">
        <ele>1123.92</ele>
        <time>2016-09-13T09:03:08Z</time>
      </trkpt>
      <trkpt lat="45.12201" lon="4.5273">
        <ele>1124.4</ele>
        <time>2016-09-13T09:03:24Z</time>
      </trkpt>
      <trkpt lat="45.12199" lon="4.52727">
        <ele>1124.4</ele>
        <time>2016-09-13T09:03:29Z</time>
      </trkpt>
      <trkpt lat="45.12192" lon="4.5271">
        <ele>1124.88</ele>
        <time>2016-09-13T09:03:42Z</time>
      </trkpt>
      <trkpt lat="45.12191" lon="4.52704">
        <ele>1124.88</ele>
        <time>2016-09-13T09:03:46Z</time>
      </trkpt>
      <trkpt lat="45.12189" lon="4.52694">
        <ele>1126.32</ele>
        <time>2016-09-13T09:03:53Z</time>
      </trkpt>
      <trkpt lat="45.12185" lon="4.52682">
        <ele>1126.32</ele>
        <time>2016-09-13T09:04:03Z</time>
      </trkpt>
      <trkpt lat="45.1218" lon="4.52659">
        <ele>1127.76</ele>
        <time>2016-09-13T09:04:20Z</time>
      </trkpt>
      <trkpt lat="45.12173" lon="4.52638">
        <ele>1128.73</ele>
        <time>2016-09-13T09:04:38Z</time>
      </trkpt>
      <trkpt lat="45.12169" lon="4.52632">
        <ele>1129.21</ele>
        <time>2016-09-13T09:04:44Z</time>
      </trkpt>
      <trkpt lat="45.12167" lon="4.5263">
        <ele>1129.21</ele>
        <time>2016-09-13T09:04:47Z</time>
      </trkpt>
      <trkpt lat="45.12153" lon="4.52608">
        <ele>1131.13</ele>
        <time>2016-09-13T09:05:07Z</time>
      </trkpt>
      <trkpt lat="45.12142" lon="4.52587">
        <ele>1133.05</ele>
        <time>2016-09-13T09:05:25Z</time>
      </trkpt>
      <trkpt lat="45.1214" lon="4.52581">
        <ele>1134.01</ele>
        <time>2016-09-13T09:05:29Z</time>
      </trkpt>
      <trkpt lat="45.1213" lon="4.52556">
        <ele>1135.94</ele>
        <time>2016-09-13T09:05:49Z</time>
      </trkpt>
      <trkpt lat="45.12124" lon="4.52537">
        <ele>1135.94</ele>
        <time>2016-09-13T09:06:03Z</time>
      </trkpt>
      <trkpt lat="45.12119" lon="4.52516">
        <ele>1137.86</ele>
        <time>2016-09-13T09:06:19Z</time>
      </trkpt>
      <trkpt lat="45.1212" lon="4.52486">
        <ele>1138.82</ele>
        <time>2016-09-13T09:06:38Z</time>
      </trkpt>
      <trkpt lat="45.12119" lon="4.5246">
        <ele>1139.78</ele>
        <time>2016-09-13T09:06:56Z</time>
      </trkpt>
      <trkpt lat="45.12112" lon="4.52435">
        <ele>1141.22</ele>
        <time>2016-09-13T09:07:16Z</time>
      </trkpt>
      <trkpt lat="45.12107" lon="4.52412">
        <ele>1142.18</ele>
        <time>2016-09-13T09:07:34Z</time>
      </trkpt>
      <trkpt lat="45.12101" lon="4.52396">
        <ele>1143.63</ele>
        <time>2016-09-13T09:07:49Z</time>
      </trkpt>
      <trkpt lat="45.12101" lon="4.52395">
        <ele>1143.63</ele>
        <time>2016-09-13T09:07:50Z</time>
      </trkpt>
      <trkpt lat="45.12098" lon="4.52383">
        <ele>1144.59</ele>
        <time>2016-09-13T09:08:02Z</time>
      </trkpt>
      <trkpt lat="45.12091" lon="4.52368">
        <ele>1146.03</ele>
        <time>2016-09-13T09:08:17Z</time>
      </trkpt>
      <trkpt lat="45.12089" lon="4.52357">
        <ele>1146.99</ele>
        <time>2016-09-13T09:08:26Z</time>
      </trkpt>
      <trkpt lat="45.12088" lon="4.5235">
        <ele>1147.47</ele>
        <time>2016-09-13T09:08:31Z</time>
      </trkpt>
      <trkpt lat="45.12083" lon="4.52327">
        <ele>1149.39</ele>
        <time>2016-09-13T09:08:51Z</time>
      </trkpt>
      <trkpt lat="45.12081" lon="4.52315">
        <ele>1150.35</ele>
        <time>2016-09-13T09:09:00Z</time>
      </trkpt>
      <trkpt lat="45.12078" lon="4.523">
        <ele>1148.43</ele>
        <time>2016-09-13T09:09:15Z</time>
      </trkpt>
      <trkpt lat="45.12078" lon="4.523">
        <ele>1150.35</ele>
        <time>2016-09-13T09:09:17Z</time>
      </trkpt>
      <trkpt lat="45.12075" lon="4.52287">
        <ele>1150.35</ele>
        <time>2016-09-13T09:09:31Z</time>
      </trkpt>
      <trkpt lat="45.12072" lon="4.5227">
        <ele>1149.87</ele>
        <time>2016-09-13T09:09:45Z</time>
      </trkpt>
      <trkpt lat="45.12072" lon="4.52263">
        <ele>1151.32</ele>
        <time>2016-09-13T09:09:50Z</time>
      </trkpt>
      <trkpt lat="45.12071" lon="4.52253">
        <ele>1152.28</ele>
        <time>2016-09-13T09:09:59Z</time>
      </trkpt>
      <trkpt lat="45.12071" lon="4.52244">
        <ele>1150.84</ele>
        <time>2016-09-13T09:10:07Z</time>
      </trkpt>
      <trkpt lat="45.1207" lon="4.52237">
        <ele>1150.84</ele>
        <time>2016-09-13T09:10:12Z</time>
      </trkpt>
      <trkpt lat="45.12068" lon="4.52216">
        <ele>1148.91</ele>
        <time>2016-09-13T09:10:30Z</time>
      </trkpt>
      <trkpt lat="45.12068" lon="4.52216">
        <ele>1148.91</ele>
        <time>2016-09-13T09:10:31Z</time>
      </trkpt>
      <trkpt lat="45.12069" lon="4.52216">
        <ele>1150.84</ele>
        <time>2016-09-13T09:10:34Z</time>
      </trkpt>
      <trkpt lat="45.12068" lon="4.52199">
        <ele>1150.84</ele>
        <time>2016-09-13T09:10:48Z</time>
      </trkpt>
      <trkpt lat="45.12067" lon="4.52192">
        <ele>1149.87</ele>
        <time>2016-09-13T09:11:00Z</time>
      </trkpt>
      <trkpt lat="45.12066" lon="4.52177">
        <ele>1150.35</ele>
        <time>2016-09-13T09:11:11Z</time>
      </trkpt>
      <trkpt lat="45.12066" lon="4.52174">
        <ele>1148.43</ele>
        <time>2016-09-13T09:11:13Z</time>
      </trkpt>
      <trkpt lat="45.12066" lon="4.5215">
        <ele>1147.95</ele>
        <time>2016-09-13T09:11:30Z</time>
      </trkpt>
      <trkpt lat="45.12068" lon="4.52123">
        <ele>1146.99</ele>
        <time>2016-09-13T09:11:49Z</time>
      </trkpt>
      <trkpt lat="45.12069" lon="4.52116">
        <ele>1146.99</ele>
        <time>2016-09-13T09:11:54Z</time>
      </trkpt>
      <trkpt lat="45.1207" lon="4.52086">
        <ele>1144.59</ele>
        <time>2016-09-13T09:12:14Z</time>
      </trkpt>
      <trkpt lat="45.12071" lon="4.52054">
        <ele>1144.59</ele>
        <time>2016-09-13T09:12:35Z</time>
      </trkpt>
      <trkpt lat="45.12074" lon="4.52022">
        <ele>1143.63</ele>
        <time>2016-09-13T09:12:58Z</time>
      </trkpt>
      <trkpt lat="45.12076" lon="4.52023">
        <ele>1143.63</ele>
        <time>2016-09-13T09:13:12Z</time>
      </trkpt>
      <trkpt lat="45.12076" lon="4.5202">
        <ele>1143.63</ele>
        <time>2016-09-13T09:13:20Z</time>
      </trkpt>
      <trkpt lat="45.12074" lon="4.51998">
        <ele>1144.11</ele>
        <time>2016-09-13T09:13:33Z</time>
      </trkpt>
      <trkpt lat="45.12072" lon="4.51972">
        <ele>1143.63</ele>
        <time>2016-09-13T09:13:51Z</time>
      </trkpt>
      <trkpt lat="45.12071" lon="4.51959">
        <ele>1144.11</ele>
        <time>2016-09-13T09:14:00Z</time>
      </trkpt>
      <trkpt lat="45.12069" lon="4.51951">
        <ele>1143.14</ele>
        <time>2016-09-13T09:14:06Z</time>
      </trkpt>
      <trkpt lat="45.12058" lon="4.51925">
        <ele>1144.11</ele>
        <time>2016-09-13T09:14:26Z</time>
      </trkpt>
      <trkpt lat="45.12043" lon="4.51902">
        <ele>1142.66</ele>
        <time>2016-09-13T09:14:45Z</time>
      </trkpt>
      <trkpt lat="45.12042" lon="4.519">
        <ele>1144.11</ele>
        <time>2016-09-13T09:14:47Z</time>
      </trkpt>
      <trkpt lat="45.12029" lon="4.51881">
        <ele>1144.59</ele>
        <time>2016-09-13T09:15:04Z</time>
      </trkpt>
      <trkpt lat="45.12016" lon="4.51862">
        <ele>1145.07</ele>
        <time>2016-09-13T09:15:21Z</time>
      </trkpt>
      <trkpt lat="45.12" lon="4.51843">
        <ele>1146.03</ele>
        <time>2016-09-13T09:15:41Z</time>
      </trkpt>
      <trkpt lat="45.11988" lon="4.51824">
        <ele>1148.43</ele>
        <time>2016-09-13T09:15:58Z</time>
      </trkpt>
      <trkpt lat="45.11977" lon="4.51806">
        <ele>1147.95</ele>
        <time>2016-09-13T09:16:16Z</time>
      </trkpt>
      <trkpt lat="45.11963" lon="4.51781">
        <ele>1149.39</ele>
        <time>2016-09-13T09:16:36Z</time>
      </trkpt>
      <trkpt lat="45.11952" lon="4.51757">
        <ele>1151.32</ele>
        <time>2016-09-13T09:16:55Z</time>
      </trkpt>
      <trkpt lat="45.11948" lon="4.5173">
        <ele>1152.28</ele>
        <time>2016-09-13T09:17:14Z</time>
      </trkpt>
      <trkpt lat="45.11949" lon="4.51709">
        <ele>1152.28</ele>
        <time>2016-09-13T09:17:28Z</time>
      </trkpt>
      <trkpt lat="45.11948" lon="4.51693">
        <ele>1151.8</ele>
        <time>2016-09-13T09:17:42Z</time>
      </trkpt>
      <trkpt lat="45.11946" lon="4.51661">
        <ele>1150.84</ele>
        <time>2016-09-13T09:18:02Z</time>
      </trkpt>
      <trkpt lat="45.1195" lon="4.5166">
        <ele>1150.84</ele>
        <time>2016-09-13T09:18:17Z</time>
      </trkpt>
      <trkpt lat="45.11946" lon="4.51654">
        <ele>1150.84</ele>
        <time>2016-09-13T09:18:35Z</time>
      </trkpt>
      <trkpt lat="45.11941" lon="4.51638">
        <ele>1149.87</ele>
        <time>2016-09-13T09:18:54Z</time>
      </trkpt>
      <trkpt lat="45.11937" lon="4.51629">
        <ele>1149.39</ele>
        <time>2016-09-13T09:19:09Z</time>
      </trkpt>
      <trkpt lat="45.11937" lon="4.51628">
        <ele>1148.91</ele>
        <time>2016-09-13T09:19:10Z</time>
      </trkpt>
      <trkpt lat="45.11932" lon="4.5162">
        <ele>1148.91</ele>
        <time>2016-09-13T09:19:19Z</time>
      </trkpt>
      <trkpt lat="45.11918" lon="4.51615">
        <ele>1148.43</ele>
        <time>2016-09-13T09:19:33Z</time>
      </trkpt>
      <trkpt lat="45.11905" lon="4.51616">
        <ele>1146.03</ele>
        <time>2016-09-13T09:19:49Z</time>
      </trkpt>
      <trkpt lat="45.11891" lon="4.51621">
        <ele>1146.03</ele>
        <time>2016-09-13T09:20:04Z</time>
      </trkpt>
      <trkpt lat="45.11878" lon="4.51627">
        <ele>1143.63</ele>
        <time>2016-09-13T09:20:21Z</time>
      </trkpt>
      <trkpt lat="45.11861" lon="4.51634">
        <ele>1141.22</ele>
        <time>2016-09-13T09:20:41Z</time>
      </trkpt>
      <trkpt lat="45.11843" lon="4.51643">
        <ele>1137.86</ele>
        <time>2016-09-13T09:21:00Z</time>
      </trkpt>
      <trkpt lat="45.11824" lon="4.51649">
        <ele>1134.49</ele>
        <time>2016-09-13T09:21:19Z</time>
      </trkpt>
      <trkpt lat="45.11803" lon="4.51652">
        <ele>1133.05</ele>
        <time>2016-09-13T09:21:40Z</time>
      </trkpt>
      <trkpt lat="45.11786" lon="4.51641">
        <ele>1131.13</ele>
        <time>2016-09-13T09:21:57Z</time>
      </trkpt>
      <trkpt lat="45.11772" lon="4.51628">
        <ele>1128.73</ele>
        <time>2016-09-13T09:22:15Z</time>
      </trkpt>
      <trkpt lat="45.11757" lon="4.51617">
        <ele>1126.32</ele>
        <time>2016-09-13T09:22:34Z</time>
      </trkpt>
      <trkpt lat="45.1175" lon="4.51611">
        <ele>1125.36</ele>
        <time>2016-09-13T09:22:42Z</time>
      </trkpt>
      <trkpt lat="45.11731" lon="4.51598">
        <ele>1123.92</ele>
        <time>2016-09-13T09:23:02Z</time>
      </trkpt>
      <trkpt lat="45.11719" lon="4.51586">
        <ele>1121.52</ele>
        <time>2016-09-13T09:23:18Z</time>
      </trkpt>
      <trkpt lat="45.11714" lon="4.5158">
        <ele>1122.96</ele>
        <time>2016-09-13T09:23:25Z</time>
      </trkpt>
      <trkpt lat="45.11699" lon="4.51566">
        <ele>1121.52</ele>
        <time>2016-09-13T09:23:44Z</time>
      </trkpt>
      <trkpt lat="45.11693" lon="4.51564">
        <ele>1120.07</ele>
        <time>2016-09-13T09:24:05Z</time>
      </trkpt>
      <trkpt lat="45.11691" lon="4.51562">
        <ele>1121.52</ele>
        <time>2016-09-13T09:24:23Z</time>
      </trkpt>
      <trkpt lat="45.1169" lon="4.51557">
        <ele>1120.07</ele>
        <time>2016-09-13T09:24:44Z</time>
      </trkpt>
      <trkpt lat="45.11688" lon="4.51557">
        <ele>1120.07</ele>
        <time>2016-09-13T09:25:05Z</time>
      </trkpt>
      <trkpt lat="45.11686" lon="4.51554">
        <ele>1120.07</ele>
        <time>2016-09-13T09:25:36Z</time>
      </trkpt>
      <trkpt lat="45.11684" lon="4.5155">
        <ele>1119.59</ele>
        <time>2016-09-13T09:26:12Z</time>
      </trkpt>
      <trkpt lat="45.11684" lon="4.51549">
        <ele>1120.55</ele>
        <time>2016-09-13T09:26:16Z</time>
      </trkpt>
      <trkpt lat="45.11683" lon="4.51549">
        <ele>1121.03</ele>
        <time>2016-09-13T09:26:52Z</time>
      </trkpt>
      <trkpt lat="45.11674" lon="4.51548">
        <ele>1119.11</ele>
        <time>2016-09-13T09:27:07Z</time>
      </trkpt>
      <trkpt lat="45.11674" lon="4.51548">
        <ele>1119.11</ele>
        <time>2016-09-13T09:27:08Z</time>
      </trkpt>
      <trkpt lat="45.11662" lon="4.51539">
        <ele>1118.63</ele>
        <time>2016-09-13T09:27:23Z</time>
      </trkpt>
      <trkpt lat="45.11662" lon="4.51539">
        <ele>1118.63</ele>
        <time>2016-09-13T09:27:27Z</time>
      </trkpt>
      <trkpt lat="45.11645" lon="4.51528">
        <ele>1117.67</ele>
        <time>2016-09-13T09:27:45Z</time>
      </trkpt>
      <trkpt lat="45.1163" lon="4.51518">
        <ele>1116.23</ele>
        <time>2016-09-13T09:28:02Z</time>
      </trkpt>
      <trkpt lat="45.1162" lon="4.51514">
        <ele>1117.67</ele>
        <time>2016-09-13T09:28:11Z</time>
      </trkpt>
      <trkpt lat="45.11611" lon="4.51508">
        <ele>1116.71</ele>
        <time>2016-09-13T09:28:20Z</time>
      </trkpt>
      <trkpt lat="45.11611" lon="4.51504">
        <ele>1116.71</ele>
        <time>2016-09-13T09:28:34Z</time>
      </trkpt>
      <trkpt lat="45.11609" lon="4.51504">
        <ele>1117.67</ele>
        <time>2016-09-13T09:28:44Z</time>
      </trkpt>
      <trkpt lat="45.11603" lon="4.51502">
        <ele>1116.71</ele>
        <time>2016-09-13T09:28:50Z</time>
      </trkpt>
      <trkpt lat="45.11593" lon="4.51496">
        <ele>1116.71</ele>
        <time>2016-09-13T09:29:00Z</time>
      </trkpt>
      <trkpt lat="45.11576" lon="4.51487">
        <ele>1115.75</ele>
        <time>2016-09-13T09:29:17Z</time>
      </trkpt>
      <trkpt lat="45.11569" lon="4.51483">
        <ele>1117.19</ele>
        <time>2016-09-13T09:29:25Z</time>
      </trkpt>
      <trkpt lat="45.11559" lon="4.51475">
        <ele>1115.75</ele>
        <time>2016-09-13T09:29:35Z</time>
      </trkpt>
      <trkpt lat="45.11556" lon="4.51472">
        <ele>1115.27</ele>
        <time>2016-09-13T09:29:38Z</time>
      </trkpt>
      <trkpt lat="45.11538" lon="4.51457">
        <ele>1114.31</ele>
        <time>2016-09-13T09:29:58Z</time>
      </trkpt>
      <trkpt lat="45.11518" lon="4.5144">
        <ele>1113.82</ele>
        <time>2016-09-13T09:30:18Z</time>
      </trkpt>
      <trkpt lat="45.11519" lon="4.51443">
        <ele>1113.82</ele>
        <time>2016-09-13T09:30:33Z</time>
      </trkpt>
      <trkpt lat="45.11521" lon="4.51443">
        <ele>1113.34</ele>
        <time>2016-09-13T09:31:02Z</time>
      </trkpt>
      <trkpt lat="45.11513" lon="4.51436">
        <ele>1112.86</ele>
        <time>2016-09-13T09:31:19Z</time>
      </trkpt>
      <trkpt lat="45.11495" lon="4.51415">
        <ele>1111.9</ele>
        <time>2016-09-13T09:31:40Z</time>
      </trkpt>
      <trkpt lat="45.11487" lon="4.51408">
        <ele>1111.42</ele>
        <time>2016-09-13T09:32:02Z</time>
      </trkpt>
      <trkpt lat="45.11487" lon="4.51407">
        <ele>1111.42</ele>
        <time>2016-09-13T09:32:41Z</time>
      </trkpt>
      <trkpt lat="45.11486" lon="4.51403">
        <ele>1111.42</ele>
        <time>2016-09-13T09:33:01Z</time>
      </trkpt>
      <trkpt lat="45.11465" lon="4.51388">
        <ele>1109.98</ele>
        <time>2016-09-13T09:33:21Z</time>
      </trkpt>
      <trkpt lat="45.11462" lon="4.51384">
        <ele>1108.54</ele>
        <time>2016-09-13T09:33:25Z</time>
      </trkpt>
      <trkpt lat="45.11447" lon="4.51368">
        <ele>1108.06</ele>
        <time>2016-09-13T09:33:42Z</time>
      </trkpt>
      <trkpt lat="45.11443" lon="4.51363">
        <ele>1104.69</ele>
        <time>2016-09-13T09:33:47Z</time>
      </trkpt>
      <trkpt lat="45.11441" lon="4.51362">
        <ele>1104.21</ele>
        <time>2016-09-13T09:33:49Z</time>
      </trkpt>
      <trkpt lat="45.11438" lon="4.51357">
        <ele>1104.21</ele>
        <time>2016-09-13T09:33:53Z</time>
      </trkpt>
      <trkpt lat="45.11422" lon="4.5134">
        <ele>1102.29</ele>
        <time>2016-09-13T09:34:13Z</time>
      </trkpt>
      <trkpt lat="45.11413" lon="4.51327">
        <ele>1100.37</ele>
        <time>2016-09-13T09:34:32Z</time>
      </trkpt>
      <trkpt lat="45.11412" lon="4.51327">
        <ele>1101.81</ele>
        <time>2016-09-13T09:35:10Z</time>
      </trkpt>
      <trkpt lat="45.11414" lon="4.5133">
        <ele>1100.85</ele>
        <time>2016-09-13T09:35:40Z</time>
      </trkpt>
      <trkpt lat="45.11414" lon="4.5133">
        <ele>1102.29</ele>
        <time>2016-09-13T09:36:02Z</time>
      </trkpt>
      <trkpt lat="45.11414" lon="4.5133">
        <ele>1100.37</ele>
        <time>2016-09-13T09:36:09Z</time>
      </trkpt>
      <trkpt lat="45.11413" lon="4.5133">
        <ele>1101.33</ele>
        <time>2016-09-13T09:36:11Z</time>
      </trkpt>
      <trkpt lat="45.11413" lon="4.5133">
        <ele>1099.89</ele>
        <time>2016-09-13T09:36:14Z</time>
      </trkpt>
      <trkpt lat="45.11413" lon="4.51328">
        <ele>1099.4</ele>
        <time>2016-09-13T09:36:34Z</time>
      </trkpt>
      <trkpt lat="45.11413" lon="4.51327">
        <ele>1100.85</ele>
        <time>2016-09-13T09:36:36Z</time>
      </trkpt>
      <trkpt lat="45.11412" lon="4.51328">
        <ele>1102.29</ele>
        <time>2016-09-13T09:36:58Z</time>
      </trkpt>
      <trkpt lat="45.11413" lon="4.51329">
        <ele>1100.85</ele>
        <time>2016-09-13T09:37:02Z</time>
      </trkpt>
      <trkpt lat="45.11412" lon="4.5133">
        <ele>1101.33</ele>
        <time>2016-09-13T09:37:20Z</time>
      </trkpt>
      <trkpt lat="45.11408" lon="4.51324">
        <ele>1101.33</ele>
        <time>2016-09-13T09:37:36Z</time>
      </trkpt>
      <trkpt lat="45.11406" lon="4.51323">
        <ele>1099.4</ele>
        <time>2016-09-13T09:37:38Z</time>
      </trkpt>
      <trkpt lat="45.11395" lon="4.5131">
        <ele>1096.52</ele>
        <time>2016-09-13T09:37:55Z</time>
      </trkpt>
      <trkpt lat="45.11382" lon="4.51294">
        <ele>1094.6</ele>
        <time>2016-09-13T09:38:14Z</time>
      </trkpt>
      <trkpt lat="45.11373" lon="4.51284">
        <ele>1091.23</ele>
        <time>2016-09-13T09:38:26Z</time>
      </trkpt>
      <trkpt lat="45.1136" lon="4.51265">
        <ele>1088.35</ele>
        <time>2016-09-13T09:38:44Z</time>
      </trkpt>
      <trkpt lat="45.11357" lon="4.51261">
        <ele>1089.31</ele>
        <time>2016-09-13T09:38:49Z</time>
      </trkpt>
      <trkpt lat="45.11351" lon="4.51247">
        <ele>1088.35</ele>
        <time>2016-09-13T09:39:05Z</time>
      </trkpt>
      <trkpt lat="45.11352" lon="4.51246">
        <ele>1088.35</ele>
        <time>2016-09-13T09:39:06Z</time>
      </trkpt>
      <trkpt lat="45.11348" lon="4.51243">
        <ele>1086.43</ele>
        <time>2016-09-13T09:39:34Z</time>
      </trkpt>
      <trkpt lat="45.11338" lon="4.51234">
        <ele>1086.43</ele>
        <time>2016-09-13T09:39:45Z</time>
      </trkpt>
      <trkpt lat="45.11326" lon="4.51233">
        <ele>1085.47</ele>
        <time>2016-09-13T09:39:58Z</time>
      </trkpt>
      <trkpt lat="45.11309" lon="4.51241">
        <ele>1083.06</ele>
        <time>2016-09-13T09:40:16Z</time>
      </trkpt>
      <trkpt lat="45.11296" lon="4.51249">
        <ele>1080.66</ele>
        <time>2016-09-13T09:40:32Z</time>
      </trkpt>
      <trkpt lat="45.11293" lon="4.51258">
        <ele>1078.26</ele>
        <time>2016-09-13T09:40:40Z</time>
      </trkpt>
      <trkpt lat="45.11296" lon="4.51281">
        <ele>1077.29</ele>
        <time>2016-09-13T09:40:59Z</time>
      </trkpt>
      <trkpt lat="45.11305" lon="4.513">
        <ele>1075.85</ele>
        <time>2016-09-13T09:41:18Z</time>
      </trkpt>
      <trkpt lat="45.11312" lon="4.51319">
        <ele>1072.97</ele>
        <time>2016-09-13T09:41:34Z</time>
      </trkpt>
      <trkpt lat="45.11315" lon="4.5133">
        <ele>1072.01</ele>
        <time>2016-09-13T09:41:43Z</time>
      </trkpt>
      <trkpt lat="45.1132" lon="4.51353">
        <ele>1069.6</ele>
        <time>2016-09-13T09:42:02Z</time>
      </trkpt>
      <trkpt lat="45.1132" lon="4.51353">
        <ele>1071.05</ele>
        <time>2016-09-13T09:42:13Z</time>
      </trkpt>
      <trkpt lat="45.1132" lon="4.51356">
        <ele>1069.6</ele>
        <time>2016-09-13T09:42:25Z</time>
      </trkpt>
      <trkpt lat="45.1132" lon="4.51365">
        <ele>1068.16</ele>
        <time>2016-09-13T09:42:44Z</time>
      </trkpt>
      <trkpt lat="45.1132" lon="4.51376">
        <ele>1067.2</ele>
        <time>2016-09-13T09:43:04Z</time>
      </trkpt>
      <trkpt lat="45.1132" lon="4.51393">
        <ele>1064.8</ele>
        <time>2016-09-13T09:43:23Z</time>
      </trkpt>
      <trkpt lat="45.11319" lon="4.51417">
        <ele>1062.39</ele>
        <time>2016-09-13T09:43:43Z</time>
      </trkpt>
      <trkpt lat="45.11319" lon="4.51436">
        <ele>1059.99</ele>
        <time>2016-09-13T09:44:02Z</time>
      </trkpt>
      <trkpt lat="45.11326" lon="4.5146">
        <ele>1058.07</ele>
        <time>2016-09-13T09:44:21Z</time>
      </trkpt>
      <trkpt lat="45.11325" lon="4.51472">
        <ele>1059.03</ele>
        <time>2016-09-13T09:44:40Z</time>
      </trkpt>
      <trkpt lat="45.11328" lon="4.51485">
        <ele>1058.07</ele>
        <time>2016-09-13T09:44:55Z</time>
      </trkpt>
      <trkpt lat="45.11333" lon="4.51505">
        <ele>1057.11</ele>
        <time>2016-09-13T09:45:11Z</time>
      </trkpt>
      <trkpt lat="45.11339" lon="4.51529">
        <ele>1055.67</ele>
        <time>2016-09-13T09:45:28Z</time>
      </trkpt>
      <trkpt lat="45.11346" lon="4.51556">
        <ele>1052.78</ele>
        <time>2016-09-13T09:45:49Z</time>
      </trkpt>
      <trkpt lat="45.11357" lon="4.51577">
        <ele>1053.74</ele>
        <time>2016-09-13T09:46:08Z</time>
      </trkpt>
      <trkpt lat="45.1137" lon="4.516">
        <ele>1054.22</ele>
        <time>2016-09-13T09:46:29Z</time>
      </trkpt>
      <trkpt lat="45.11384" lon="4.51624">
        <ele>1052.3</ele>
        <time>2016-09-13T09:46:50Z</time>
      </trkpt>
      <trkpt lat="45.11396" lon="4.51647">
        <ele>1051.34</ele>
        <time>2016-09-13T09:47:09Z</time>
      </trkpt>
      <trkpt lat="45.11403" lon="4.51654">
        <ele>1051.34</ele>
        <time>2016-09-13T09:47:17Z</time>
      </trkpt>
      <trkpt lat="45.11411" lon="4.51673">
        <ele>1050.86</ele>
        <time>2016-09-13T09:47:26Z</time>
      </trkpt>
      <trkpt lat="45.11427" lon="4.51697">
        <ele>1048.94</ele>
        <time>2016-09-13T09:47:48Z</time>
      </trkpt>
      <trkpt lat="45.11428" lon="4.51704">
        <ele>1047.97</ele>
        <time>2016-09-13T09:48:06Z</time>
      </trkpt>
      <trkpt lat="45.11416" lon="4.51701">
        <ele>1047.49</ele>
        <time>2016-09-13T09:48:19Z</time>
      </trkpt>
      <trkpt lat="45.11412" lon="4.51698">
        <ele>1047.01</ele>
        <time>2016-09-13T09:48:24Z</time>
      </trkpt>
      <trkpt lat="45.11395" lon="4.51684">
        <ele>1046.05</ele>
        <time>2016-09-13T09:48:40Z</time>
      </trkpt>
      <trkpt lat="45.11377" lon="4.51662">
        <ele>1044.13</ele>
        <time>2016-09-13T09:48:59Z</time>
      </trkpt>
      <trkpt lat="45.11361" lon="4.51643">
        <ele>1044.13</ele>
        <time>2016-09-13T09:49:16Z</time>
      </trkpt>
      <trkpt lat="45.11343" lon="4.51623">
        <ele>1042.21</ele>
        <time>2016-09-13T09:49:35Z</time>
      </trkpt>
      <trkpt lat="45.11335" lon="4.51615">
        <ele>1041.73</ele>
        <time>2016-09-13T09:49:42Z</time>
      </trkpt>
      <trkpt lat="45.11328" lon="4.51605">
        <ele>1042.69</ele>
        <time>2016-09-13T09:49:51Z</time>
      </trkpt>
      <trkpt lat="45.11308" lon="4.51581">
        <ele>1043.65</ele>
        <time>2016-09-13T09:50:12Z</time>
      </trkpt>
      <trkpt lat="45.11287" lon="4.5155">
        <ele>1042.21</ele>
        <time>2016-09-13T09:50:37Z</time>
      </trkpt>
      <trkpt lat="45.11279" lon="4.5153">
        <ele>1042.69</ele>
        <time>2016-09-13T09:50:51Z</time>
      </trkpt>
      <trkpt lat="45.11279" lon="4.51529">
        <ele>1038.84</ele>
        <time>2016-09-13T09:50:52Z</time>
      </trkpt>
      <trkpt lat="45.11278" lon="4.51527">
        <ele>1038.84</ele>
        <time>2016-09-13T09:50:53Z</time>
      </trkpt>
      <trkpt lat="45.11276" lon="4.51523">
        <ele>1040.76</ele>
        <time>2016-09-13T09:50:56Z</time>
      </trkpt>
      <trkpt lat="45.11271" lon="4.51504">
        <ele>1039.8</ele>
        <time>2016-09-13T09:51:08Z</time>
      </trkpt>
      <trkpt lat="45.1127" lon="4.51499">
        <ele>1041.25</ele>
        <time>2016-09-13T09:51:11Z</time>
      </trkpt>
      <trkpt lat="45.11269" lon="4.5149">
        <ele>1039.8</ele>
        <time>2016-09-13T09:51:16Z</time>
      </trkpt>
      <trkpt lat="45.11268" lon="4.51466">
        <ele>1041.25</ele>
        <time>2016-09-13T09:51:32Z</time>
      </trkpt>
      <trkpt lat="45.11271" lon="4.51448">
        <ele>1037.88</ele>
        <time>2016-09-13T09:51:45Z</time>
      </trkpt>
      <trkpt lat="45.11269" lon="4.51433">
        <ele>1036.92</ele>
        <time>2016-09-13T09:52:00Z</time>
      </trkpt>
      <trkpt lat="45.11269" lon="4.51432">
        <ele>1036.92</ele>
        <time>2016-09-13T09:52:01Z</time>
      </trkpt>
      <trkpt lat="45.11262" lon="4.51419">
        <ele>1037.88</ele>
        <time>2016-09-13T09:52:08Z</time>
      </trkpt>
      <trkpt lat="45.11258" lon="4.51414">
        <ele>1036.44</ele>
        <time>2016-09-13T09:52:13Z</time>
      </trkpt>
      <trkpt lat="45.11253" lon="4.51406">
        <ele>1035.96</ele>
        <time>2016-09-13T09:52:19Z</time>
      </trkpt>
      <trkpt lat="45.11234" lon="4.51377">
        <ele>1035.48</ele>
        <time>2016-09-13T09:52:41Z</time>
      </trkpt>
      <trkpt lat="45.11219" lon="4.51354">
        <ele>1034.52</ele>
        <time>2016-09-13T09:52:59Z</time>
      </trkpt>
      <trkpt lat="45.11206" lon="4.51335">
        <ele>1034.04</ele>
        <time>2016-09-13T09:53:16Z</time>
      </trkpt>
      <trkpt lat="45.11205" lon="4.51341">
        <ele>1033.07</ele>
        <time>2016-09-13T09:53:29Z</time>
      </trkpt>
      <trkpt lat="45.11213" lon="4.51365">
        <ele>1030.67</ele>
        <time>2016-09-13T09:53:47Z</time>
      </trkpt>
      <trkpt lat="45.11217" lon="4.51378">
        <ele>1028.75</ele>
        <time>2016-09-13T09:53:56Z</time>
      </trkpt>
      <trkpt lat="45.11222" lon="4.51402">
        <ele>1028.27</ele>
        <time>2016-09-13T09:54:15Z</time>
      </trkpt>
      <trkpt lat="45.11223" lon="4.51414">
        <ele>1024.9</ele>
        <time>2016-09-13T09:54:28Z</time>
      </trkpt>
      <trkpt lat="45.11224" lon="4.51416">
        <ele>1026.34</ele>
        <time>2016-09-13T09:54:39Z</time>
      </trkpt>
      <trkpt lat="45.11221" lon="4.51419">
        <ele>1024.42</ele>
        <time>2016-09-13T09:54:56Z</time>
      </trkpt>
      <trkpt lat="45.1122" lon="4.51424">
        <ele>1023.94</ele>
        <time>2016-09-13T09:55:09Z</time>
      </trkpt>
      <trkpt lat="45.11214" lon="4.51436">
        <ele>1022.02</ele>
        <time>2016-09-13T09:55:25Z</time>
      </trkpt>
      <trkpt lat="45.11213" lon="4.51437">
        <ele>1021.06</ele>
        <time>2016-09-13T09:55:27Z</time>
      </trkpt>
      <trkpt lat="45.11206" lon="4.51457">
        <ele>1019.62</ele>
        <time>2016-09-13T09:55:44Z</time>
      </trkpt>
      <trkpt lat="45.11203" lon="4.51461">
        <ele>1019.13</ele>
        <time>2016-09-13T09:55:55Z</time>
      </trkpt>
      <trkpt lat="45.11194" lon="4.51473">
        <ele>1017.21</ele>
        <time>2016-09-13T09:56:13Z</time>
      </trkpt>
      <trkpt lat="45.11191" lon="4.51476">
        <ele>1015.77</ele>
        <time>2016-09-13T09:56:21Z</time>
      </trkpt>
      <trkpt lat="45.11185" lon="4.51484">
        <ele>1015.29</ele>
        <time>2016-09-13T09:56:34Z</time>
      </trkpt>
      <trkpt lat="45.11177" lon="4.51493">
        <ele>1012.41</ele>
        <time>2016-09-13T09:56:50Z</time>
      </trkpt>
      <trkpt lat="45.11169" lon="4.51501">
        <ele>1010.96</ele>
        <time>2016-09-13T09:57:05Z</time>
      </trkpt>
      <trkpt lat="45.11166" lon="4.51506">
        <ele>1008.56</ele>
        <time>2016-09-13T09:57:24Z</time>
      </trkpt>
      <trkpt lat="45.11164" lon="4.51507">
        <ele>1009.52</ele>
        <time>2016-09-13T09:57:35Z</time>
      </trkpt>
      <trkpt lat="45.1116" lon="4.51516">
        <ele>1007.12</ele>
        <time>2016-09-13T09:57:49Z</time>
      </trkpt>
      <trkpt lat="45.11157" lon="4.51534">
        <ele>1004.23</ele>
        <time>2016-09-13T09:58:03Z</time>
      </trkpt>
      <trkpt lat="45.11155" lon="4.51543">
        <ele>1002.79</ele>
        <time>2016-09-13T09:58:16Z</time>
      </trkpt>
      <trkpt lat="45.11153" lon="4.5155">
        <ele>1002.79</ele>
        <time>2016-09-13T09:58:40Z</time>
      </trkpt>
      <trkpt lat="45.11153" lon="4.51551">
        <ele>1002.79</ele>
        <time>2016-09-13T09:58:41Z</time>
      </trkpt>
      <trkpt lat="45.11157" lon="4.51571">
        <ele>1000.39</ele>
        <time>2016-09-13T09:59:01Z</time>
      </trkpt>
      <trkpt lat="45.1116" lon="4.51584">
        <ele>997.02</ele>
        <time>2016-09-13T09:59:15Z</time>
      </trkpt>
      <trkpt lat="45.11163" lon="4.51606">
        <ele>994.62</ele>
        <time>2016-09-13T09:59:31Z</time>
      </trkpt>
      <trkpt lat="45.11166" lon="4.51621">
        <ele>992.22</ele>
        <time>2016-09-13T09:59:48Z</time>
      </trkpt>
      <trkpt lat="45.11173" lon="4.51632">
        <ele>988.85</ele>
        <time>2016-09-13T10:00:03Z</time>
      </trkpt>
      <trkpt lat="45.11179" lon="4.51656">
        <ele>985.49</ele>
        <time>2016-09-13T10:00:22Z</time>
      </trkpt>
      <trkpt lat="45.11189" lon="4.51678">
        <ele>983.09</ele>
        <time>2016-09-13T10:00:40Z</time>
      </trkpt>
      <trkpt lat="45.11194" lon="4.51687">
        <ele>981.64</ele>
        <time>2016-09-13T10:00:57Z</time>
      </trkpt>
      <trkpt lat="45.11198" lon="4.51698">
        <ele>980.68</ele>
        <time>2016-09-13T10:01:15Z</time>
      </trkpt>
      <trkpt lat="45.11207" lon="4.51714">
        <ele>979.24</ele>
        <time>2016-09-13T10:01:32Z</time>
      </trkpt>
      <trkpt lat="45.11217" lon="4.51735">
        <ele>978.76</ele>
        <time>2016-09-13T10:01:50Z</time>
      </trkpt>
      <trkpt lat="45.11231" lon="4.51761">
        <ele>977.32</ele>
        <time>2016-09-13T10:02:07Z</time>
      </trkpt>
      <trkpt lat="45.11241" lon="4.51781">
        <ele>974.91</ele>
        <time>2016-09-13T10:02:24Z</time>
      </trkpt>
      <trkpt lat="45.11246" lon="4.51799">
        <ele>972.99</ele>
        <time>2016-09-13T10:02:41Z</time>
      </trkpt>
      <trkpt lat="45.11254" lon="4.5182">
        <ele>970.11</ele>
        <time>2016-09-13T10:03:01Z</time>
      </trkpt>
      <trkpt lat="45.11257" lon="4.51841">
        <ele>970.11</ele>
        <time>2016-09-13T10:03:23Z</time>
      </trkpt>
      <trkpt lat="45.11266" lon="4.51851">
        <ele>969.15</ele>
        <time>2016-09-13T10:03:48Z</time>
      </trkpt>
      <trkpt lat="45.11271" lon="4.51859">
        <ele>968.67</ele>
        <time>2016-09-13T10:04:07Z</time>
      </trkpt>
      <trkpt lat="45.11277" lon="4.51876">
        <ele>967.7</ele>
        <time>2016-09-13T10:04:25Z</time>
      </trkpt>
      <trkpt lat="45.11289" lon="4.519">
        <ele>967.7</ele>
        <time>2016-09-13T10:04:45Z</time>
      </trkpt>
      <trkpt lat="45.1129" lon="4.51904">
        <ele>967.7</ele>
        <time>2016-09-13T10:05:03Z</time>
      </trkpt>
      <trkpt lat="45.11289" lon="4.5191">
        <ele>967.7</ele>
        <time>2016-09-13T10:05:27Z</time>
      </trkpt>
      <trkpt lat="45.11292" lon="4.51934">
        <ele>968.67</ele>
        <time>2016-09-13T10:05:49Z</time>
      </trkpt>
      <trkpt lat="45.11293" lon="4.51935">
        <ele>968.67</ele>
        <time>2016-09-13T10:05:50Z</time>
      </trkpt>
      <trkpt lat="45.11296" lon="4.51941">
        <ele>969.15</ele>
        <time>2016-09-13T10:06:09Z</time>
      </trkpt>
      <trkpt lat="45.11295" lon="4.5197">
        <ele>969.15</ele>
        <time>2016-09-13T10:06:29Z</time>
      </trkpt>
      <trkpt lat="45.11301" lon="4.51987">
        <ele>971.07</ele>
        <time>2016-09-13T10:06:48Z</time>
      </trkpt>
      <trkpt lat="45.11305" lon="4.51987">
        <ele>971.07</ele>
        <time>2016-09-13T10:07:11Z</time>
      </trkpt>
      <trkpt lat="45.11312" lon="4.52002">
        <ele>972.99</ele>
        <time>2016-09-13T10:07:27Z</time>
      </trkpt>
      <trkpt lat="45.11315" lon="4.52027">
        <ele>972.99</ele>
        <time>2016-09-13T10:07:46Z</time>
      </trkpt>
      <trkpt lat="45.11313" lon="4.52051">
        <ele>975.39</ele>
        <time>2016-09-13T10:08:03Z</time>
      </trkpt>
      <trkpt lat="45.11313" lon="4.52078">
        <ele>978.28</ele>
        <time>2016-09-13T10:08:21Z</time>
      </trkpt>
      <trkpt lat="45.11316" lon="4.52093">
        <ele>980.2</ele>
        <time>2016-09-13T10:08:36Z</time>
      </trkpt>
      <trkpt lat="45.11322" lon="4.52103">
        <ele>981.16</ele>
        <time>2016-09-13T10:08:49Z</time>
      </trkpt>
      <trkpt lat="45.1133" lon="4.52115">
        <ele>982.12</ele>
        <time>2016-09-13T10:09:03Z</time>
      </trkpt>
      <trkpt lat="45.11332" lon="4.5213">
        <ele>983.09</ele>
        <time>2016-09-13T10:09:16Z</time>
      </trkpt>
      <trkpt lat="45.11327" lon="4.52132">
        <ele>983.57</ele>
        <time>2016-09-13T10:09:33Z</time>
      </trkpt>
      <trkpt lat="45.11325" lon="4.5213">
        <ele>983.57</ele>
        <time>2016-09-13T10:09:53Z</time>
      </trkpt>
      <trkpt lat="45.11322" lon="4.52138">
        <ele>983.57</ele>
        <time>2016-09-13T10:10:22Z</time>
      </trkpt>
      <trkpt lat="45.11326" lon="4.52135">
        <ele>984.53</ele>
        <time>2016-09-13T10:10:47Z</time>
      </trkpt>
      <trkpt lat="45.11326" lon="4.52138">
        <ele>983.57</ele>
        <time>2016-09-13T10:11:14Z</time>
      </trkpt>
      <trkpt lat="45.11326" lon="4.52138">
        <ele>984.53</ele>
        <time>2016-09-13T10:11:35Z</time>
      </trkpt>
      <trkpt lat="45.11327" lon="4.52136">
        <ele>985.01</ele>
        <time>2016-09-13T10:12:00Z</time>
      </trkpt>
      <trkpt lat="45.11329" lon="4.52138">
        <ele>985.49</ele>
        <time>2016-09-13T10:12:29Z</time>
      </trkpt>
      <trkpt lat="45.11306" lon="4.52122">
        <ele>985.97</ele>
        <time>2016-09-13T10:12:48Z</time>
      </trkpt>
      <trkpt lat="45.11295" lon="4.52114">
        <ele>988.85</ele>
        <time>2016-09-13T10:13:08Z</time>
      </trkpt>
      <trkpt lat="45.11284" lon="4.52103">
        <ele>990.78</ele>
        <time>2016-09-13T10:13:25Z</time>
      </trkpt>
      <trkpt lat="45.11276" lon="4.52087">
        <ele>992.22</ele>
        <time>2016-09-13T10:13:39Z</time>
      </trkpt>
      <trkpt lat="45.11272" lon="4.52068">
        <ele>993.18</ele>
        <time>2016-09-13T10:13:55Z</time>
      </trkpt>
      <trkpt lat="45.11262" lon="4.52051">
        <ele>993.66</ele>
        <time>2016-09-13T10:14:14Z</time>
      </trkpt>
      <trkpt lat="45.11252" lon="4.52043">
        <ele>994.14</ele>
        <time>2016-09-13T10:14:28Z</time>
      </trkpt>
      <trkpt lat="45.11249" lon="4.5204">
        <ele>994.14</ele>
        <time>2016-09-13T10:14:45Z</time>
      </trkpt>
      <trkpt lat="45.11244" lon="4.52026">
        <ele>995.1</ele>
        <time>2016-09-13T10:15:03Z</time>
      </trkpt>
      <trkpt lat="45.11237" lon="4.52005">
        <ele>996.06</ele>
        <time>2016-09-13T10:15:24Z</time>
      </trkpt>
      <trkpt lat="45.11222" lon="4.51989">
        <ele>997.99</ele>
        <time>2016-09-13T10:15:44Z</time>
      </trkpt>
      <trkpt lat="45.11198" lon="4.51972">
        <ele>999.91</ele>
        <time>2016-09-13T10:16:07Z</time>
      </trkpt>
      <trkpt lat="45.11184" lon="4.51966">
        <ele>1000.39</ele>
        <time>2016-09-13T10:16:26Z</time>
      </trkpt>
      <trkpt lat="45.11164" lon="4.51959">
        <ele>1000.87</ele>
        <time>2016-09-13T10:16:45Z</time>
      </trkpt>
      <trkpt lat="45.11142" lon="4.51949">
        <ele>1002.79</ele>
        <time>2016-09-13T10:17:05Z</time>
      </trkpt>
      <trkpt lat="45.11125" lon="4.51946">
        <ele>1004.23</ele>
        <time>2016-09-13T10:17:22Z</time>
      </trkpt>
      <trkpt lat="45.11106" lon="4.51943">
        <ele>1005.2</ele>
        <time>2016-09-13T10:17:40Z</time>
      </trkpt>
      <trkpt lat="45.11094" lon="4.51944">
        <ele>1006.16</ele>
        <time>2016-09-13T10:17:55Z</time>
      </trkpt>
      <trkpt lat="45.11073" lon="4.51945">
        <ele>1007.6</ele>
        <time>2016-09-13T10:18:11Z</time>
      </trkpt>
      <trkpt lat="45.11062" lon="4.51947">
        <ele>1008.56</ele>
        <time>2016-09-13T10:18:27Z</time>
      </trkpt>
      <trkpt lat="45.11045" lon="4.5195">
        <ele>1009.04</ele>
        <time>2016-09-13T10:18:45Z</time>
      </trkpt>
      <trkpt lat="45.11044" lon="4.51953">
        <ele>1009.04</ele>
        <time>2016-09-13T10:19:14Z</time>
      </trkpt>
      <trkpt lat="45.11042" lon="4.51955">
        <ele>1009.04</ele>
        <time>2016-09-13T10:19:47Z</time>
      </trkpt>
      <trkpt lat="45.11041" lon="4.51954">
        <ele>1009.52</ele>
        <time>2016-09-13T10:20:23Z</time>
      </trkpt>
      <trkpt lat="45.11044" lon="4.51955">
        <ele>1009.52</ele>
        <time>2016-09-13T10:20:48Z</time>
      </trkpt>
      <trkpt lat="45.11034" lon="4.51941">
        <ele>1009.52</ele>
        <time>2016-09-13T10:21:23Z</time>
      </trkpt>
      <trkpt lat="45.11032" lon="4.51938">
        <ele>1009.52</ele>
        <time>2016-09-13T10:21:50Z</time>
      </trkpt>
      <trkpt lat="45.1104" lon="4.51948">
        <ele>1009.52</ele>
        <time>2016-09-13T10:22:24Z</time>
      </trkpt>
      <trkpt lat="45.11042" lon="4.51953">
        <ele>1009.52</ele>
        <time>2016-09-13T10:23:00Z</time>
      </trkpt>
      <trkpt lat="45.11037" lon="4.51958">
        <ele>1009.52</ele>
        <time>2016-09-13T10:23:29Z</time>
      </trkpt>
      <trkpt lat="45.11023" lon="4.51965">
        <ele>1010.48</ele>
        <time>2016-09-13T10:23:47Z</time>
      </trkpt>
      <trkpt lat="45.11006" lon="4.51972">
        <ele>1011.93</ele>
        <time>2016-09-13T10:24:06Z</time>
      </trkpt>
      <trkpt lat="45.10983" lon="4.51983">
        <ele>1013.37</ele>
        <time>2016-09-13T10:24:28Z</time>
      </trkpt>
      <trkpt lat="45.10963" lon="4.51997">
        <ele>1013.85</ele>
        <time>2016-09-13T10:24:49Z</time>
      </trkpt>
      <trkpt lat="45.1095" lon="4.52004">
        <ele>1014.81</ele>
        <time>2016-09-13T10:25:08Z</time>
      </trkpt>
      <trkpt lat="45.10957" lon="4.52005">
        <ele>1016.73</ele>
        <time>2016-09-13T10:25:26Z</time>
      </trkpt>
      <trkpt lat="45.10955" lon="4.52008">
        <ele>1017.21</ele>
        <time>2016-09-13T10:25:52Z</time>
      </trkpt>
      <trkpt lat="45.10956" lon="4.52011">
        <ele>1018.65</ele>
        <time>2016-09-13T10:25:54Z</time>
      </trkpt>
      <trkpt lat="45.10952" lon="4.52025">
        <ele>1019.62</ele>
        <time>2016-09-13T10:26:09Z</time>
      </trkpt>
      <trkpt lat="45.10947" lon="4.52034">
        <ele>1021.54</ele>
        <time>2016-09-13T10:26:26Z</time>
      </trkpt>
      <trkpt lat="45.10942" lon="4.52049">
        <ele>1024.42</ele>
        <time>2016-09-13T10:26:48Z</time>
      </trkpt>
      <trkpt lat="45.10935" lon="4.52064">
        <ele>1027.79</ele>
        <time>2016-09-13T10:27:09Z</time>
      </trkpt>
      <trkpt lat="45.1093" lon="4.52077">
        <ele>1029.23</ele>
        <time>2016-09-13T10:27:27Z</time>
      </trkpt>
      <trkpt lat="45.10923" lon="4.5208">
        <ele>1030.19</ele>
        <time>2016-09-13T10:27:49Z</time>
      </trkpt>
      <trkpt lat="45.10922" lon="4.52079">
        <ele>1030.19</ele>
        <time>2016-09-13T10:28:09Z</time>
      </trkpt>
      <trkpt lat="45.10922" lon="4.52084">
        <ele>1030.67</ele>
        <time>2016-09-13T10:28:35Z</time>
      </trkpt>
      <trkpt lat="45.10913" lon="4.52091">
        <ele>1030.67</ele>
        <time>2016-09-13T10:28:52Z</time>
      </trkpt>
      <trkpt lat="45.10911" lon="4.52093">
        <ele>1029.23</ele>
        <time>2016-09-13T10:28:55Z</time>
      </trkpt>
      <trkpt lat="45.109" lon="4.52099">
        <ele>1027.79</ele>
        <time>2016-09-13T10:29:10Z</time>
      </trkpt>
      <trkpt lat="45.10891" lon="4.52107">
        <ele>1027.31</ele>
        <time>2016-09-13T10:29:28Z</time>
      </trkpt>
      <trkpt lat="45.10882" lon="4.52111">
        <ele>1026.34</ele>
        <time>2016-09-13T10:29:49Z</time>
      </trkpt>
      <trkpt lat="45.10875" lon="4.52112">
        <ele>1026.34</ele>
        <time>2016-09-13T10:30:18Z</time>
      </trkpt>
      <trkpt lat="45.10858" lon="4.52127">
        <ele>1025.38</ele>
        <time>2016-09-13T10:30:40Z</time>
      </trkpt>
      <trkpt lat="45.10842" lon="4.52139">
        <ele>1025.38</ele>
        <time>2016-09-13T10:31:01Z</time>
      </trkpt>
      <trkpt lat="45.10832" lon="4.5215">
        <ele>1026.34</ele>
        <time>2016-09-13T10:31:19Z</time>
      </trkpt>
      <trkpt lat="45.10817" lon="4.52168">
        <ele>1026.34</ele>
        <time>2016-09-13T10:31:38Z</time>
      </trkpt>
      <trkpt lat="45.10804" lon="4.52154">
        <ele>1025.86</ele>
        <time>2016-09-13T10:31:53Z</time>
      </trkpt>
      <trkpt lat="45.10795" lon="4.52145">
        <ele>1026.34</ele>
        <time>2016-09-13T10:32:15Z</time>
      </trkpt>
      <trkpt lat="45.10782" lon="4.52122">
        <ele>1026.34</ele>
        <time>2016-09-13T10:32:37Z</time>
      </trkpt>
      <trkpt lat="45.10782" lon="4.52121">
        <ele>1024.9</ele>
        <time>2016-09-13T10:32:39Z</time>
      </trkpt>
      <trkpt lat="45.10771" lon="4.52096">
        <ele>1024.9</ele>
        <time>2016-09-13T10:33:00Z</time>
      </trkpt>
      <trkpt lat="45.10756" lon="4.5207">
        <ele>1022.98</ele>
        <time>2016-09-13T10:33:18Z</time>
      </trkpt>
      <trkpt lat="45.10749" lon="4.52061">
        <ele>1022.98</ele>
        <time>2016-09-13T10:33:41Z</time>
      </trkpt>
      <trkpt lat="45.10739" lon="4.52053">
        <ele>1020.58</ele>
        <time>2016-09-13T10:33:56Z</time>
      </trkpt>
      <trkpt lat="45.10725" lon="4.52046">
        <ele>1020.1</ele>
        <time>2016-09-13T10:34:12Z</time>
      </trkpt>
      <trkpt lat="45.10712" lon="4.52044">
        <ele>1018.65</ele>
        <time>2016-09-13T10:34:29Z</time>
      </trkpt>
      <trkpt lat="45.10696" lon="4.5204">
        <ele>1018.17</ele>
        <time>2016-09-13T10:34:46Z</time>
      </trkpt>
      <trkpt lat="45.10678" lon="4.5204">
        <ele>1015.77</ele>
        <time>2016-09-13T10:35:05Z</time>
      </trkpt>
      <trkpt lat="45.10663" lon="4.52041">
        <ele>1015.29</ele>
        <time>2016-09-13T10:35:21Z</time>
      </trkpt>
      <trkpt lat="45.10646" lon="4.52039">
        <ele>1013.37</ele>
        <time>2016-09-13T10:35:41Z</time>
      </trkpt>
      <trkpt lat="45.1063" lon="4.52035">
        <ele>1010.96</ele>
        <time>2016-09-13T10:35:58Z</time>
      </trkpt>
      <trkpt lat="45.10614" lon="4.5203">
        <ele>1010</ele>
        <time>2016-09-13T10:36:18Z</time>
      </trkpt>
      <trkpt lat="45.10599" lon="4.52035">
        <ele>1009.04</ele>
        <time>2016-09-13T10:36:39Z</time>
      </trkpt>
      <trkpt lat="45.10583" lon="4.5203">
        <ele>1008.08</ele>
        <time>2016-09-13T10:37:01Z</time>
      </trkpt>
      <trkpt lat="45.10565" lon="4.52032">
        <ele>1007.12</ele>
        <time>2016-09-13T10:37:17Z</time>
      </trkpt>
      <trkpt lat="45.10549" lon="4.52029">
        <ele>1005.2</ele>
        <time>2016-09-13T10:37:34Z</time>
      </trkpt>
      <trkpt lat="45.10531" lon="4.52028">
        <ele>1003.75</ele>
        <time>2016-09-13T10:37:53Z</time>
      </trkpt>
      <trkpt lat="45.10506" lon="4.52027">
        <ele>1001.83</ele>
        <time>2016-09-13T10:38:11Z</time>
      </trkpt>
      <trkpt lat="45.10492" lon="4.52031">
        <ele>1000.39</ele>
        <time>2016-09-13T10:38:27Z</time>
      </trkpt>
      <trkpt lat="45.10486" lon="4.52036">
        <ele>998.95</ele>
        <time>2016-09-13T10:38:42Z</time>
      </trkpt>
      <trkpt lat="45.10476" lon="4.52048">
        <ele>997.02</ele>
        <time>2016-09-13T10:38:58Z</time>
      </trkpt>
      <trkpt lat="45.10467" lon="4.52069">
        <ele>993.18</ele>
        <time>2016-09-13T10:39:14Z</time>
      </trkpt>
      <trkpt lat="45.10467" lon="4.52072">
        <ele>991.26</ele>
        <time>2016-09-13T10:39:18Z</time>
      </trkpt>
      <trkpt lat="45.10466" lon="4.52078">
        <ele>992.7</ele>
        <time>2016-09-13T10:39:26Z</time>
      </trkpt>
      <trkpt lat="45.10465" lon="4.52081">
        <ele>991.26</ele>
        <time>2016-09-13T10:39:32Z</time>
      </trkpt>
      <trkpt lat="45.10464" lon="4.52091">
        <ele>991.26</ele>
        <time>2016-09-13T10:39:42Z</time>
      </trkpt>
      <trkpt lat="45.10463" lon="4.52115">
        <ele>989.81</ele>
        <time>2016-09-13T10:40:00Z</time>
      </trkpt>
      <trkpt lat="45.10465" lon="4.52133">
        <ele>988.37</ele>
        <time>2016-09-13T10:40:18Z</time>
      </trkpt>
      <trkpt lat="45.10463" lon="4.5215">
        <ele>986.45</ele>
        <time>2016-09-13T10:40:36Z</time>
      </trkpt>
      <trkpt lat="45.10462" lon="4.52155">
        <ele>985.49</ele>
        <time>2016-09-13T10:40:55Z</time>
      </trkpt>
      <trkpt lat="45.10462" lon="4.5216">
        <ele>983.57</ele>
        <time>2016-09-13T10:41:14Z</time>
      </trkpt>
      <trkpt lat="45.10462" lon="4.52164">
        <ele>982.6</ele>
        <time>2016-09-13T10:41:37Z</time>
      </trkpt>
      <trkpt lat="45.10461" lon="4.52173">
        <ele>981.16</ele>
        <time>2016-09-13T10:41:55Z</time>
      </trkpt>
      <trkpt lat="45.10463" lon="4.52181">
        <ele>979.72</ele>
        <time>2016-09-13T10:42:12Z</time>
      </trkpt>
      <trkpt lat="45.10468" lon="4.52191">
        <ele>979.24</ele>
        <time>2016-09-13T10:42:27Z</time>
      </trkpt>
      <trkpt lat="45.10468" lon="4.5219">
        <ele>978.76</ele>
        <time>2016-09-13T10:42:49Z</time>
      </trkpt>
      <trkpt lat="45.10467" lon="4.52195">
        <ele>978.76</ele>
        <time>2016-09-13T10:43:05Z</time>
      </trkpt>
      <trkpt lat="45.10469" lon="4.52196">
        <ele>978.28</ele>
        <time>2016-09-13T10:43:20Z</time>
      </trkpt>
      <trkpt lat="45.10473" lon="4.52207">
        <ele>978.28</ele>
        <time>2016-09-13T10:43:35Z</time>
      </trkpt>
      <trkpt lat="45.10478" lon="4.52226">
        <ele>981.16</ele>
        <time>2016-09-13T10:43:53Z</time>
      </trkpt>
      <trkpt lat="45.10478" lon="4.52246">
        <ele>982.6</ele>
        <time>2016-09-13T10:44:09Z</time>
      </trkpt>
      <trkpt lat="45.10473" lon="4.52269">
        <ele>983.57</ele>
        <time>2016-09-13T10:44:25Z</time>
      </trkpt>
      <trkpt lat="45.10469" lon="4.52285">
        <ele>983.57</ele>
        <time>2016-09-13T10:44:41Z</time>
      </trkpt>
      <trkpt lat="45.10463" lon="4.52309">
        <ele>983.57</ele>
        <time>2016-09-13T10:44:57Z</time>
      </trkpt>
      <trkpt lat="45.10461" lon="4.52334">
        <ele>983.57</ele>
        <time>2016-09-13T10:45:13Z</time>
      </trkpt>
      <trkpt lat="45.1046" lon="4.52357">
        <ele>985.01</ele>
        <time>2016-09-13T10:45:28Z</time>
      </trkpt>
      <trkpt lat="45.10457" lon="4.52385">
        <ele>987.41</ele>
        <time>2016-09-13T10:45:47Z</time>
      </trkpt>
      <trkpt lat="45.10456" lon="4.52403">
        <ele>988.85</ele>
        <time>2016-09-13T10:46:02Z</time>
      </trkpt>
      <trkpt lat="45.10456" lon="4.52408">
        <ele>987.41</ele>
        <time>2016-09-13T10:46:06Z</time>
      </trkpt>
      <trkpt lat="45.10456" lon="4.52413">
        <ele>988.85</ele>
        <time>2016-09-13T10:46:09Z</time>
      </trkpt>
      <trkpt lat="45.10454" lon="4.52437">
        <ele>989.81</ele>
        <time>2016-09-13T10:46:25Z</time>
      </trkpt>
      <trkpt lat="45.10453" lon="4.52464">
        <ele>990.78</ele>
        <time>2016-09-13T10:46:42Z</time>
      </trkpt>
      <trkpt lat="45.1045" lon="4.5249">
        <ele>991.74</ele>
        <time>2016-09-13T10:46:58Z</time>
      </trkpt>
      <trkpt lat="45.10446" lon="4.52522">
        <ele>993.18</ele>
        <time>2016-09-13T10:47:14Z</time>
      </trkpt>
      <trkpt lat="45.10446" lon="4.52547">
        <ele>992.7</ele>
        <time>2016-09-13T10:47:30Z</time>
      </trkpt>
      <trkpt lat="45.10447" lon="4.52549">
        <ele>992.7</ele>
        <time>2016-09-13T10:47:49Z</time>
      </trkpt>
      <trkpt lat="45.10451" lon="4.52568">
        <ele>992.7</ele>
        <time>2016-09-13T10:48:04Z</time>
      </trkpt>
      <trkpt lat="45.10461" lon="4.52589">
        <ele>992.7</ele>
        <time>2016-09-13T10:48:22Z</time>
      </trkpt>
      <trkpt lat="45.10478" lon="4.52603">
        <ele>992.7</ele>
        <time>2016-09-13T10:48:41Z</time>
      </trkpt>
      <trkpt lat="45.10482" lon="4.52605">
        <ele>992.7</ele>
        <time>2016-09-13T10:48:58Z</time>
      </trkpt>
      <trkpt lat="45.1048" lon="4.52603">
        <ele>992.7</ele>
        <time>2016-09-13T10:49:02Z</time>
      </trkpt>
      <trkpt lat="45.10461" lon="4.52587">
        <ele>991.74</ele>
        <time>2016-09-13T10:49:21Z</time>
      </trkpt>
      <trkpt lat="45.10453" lon="4.52567">
        <ele>991.74</ele>
        <time>2016-09-13T10:49:37Z</time>
      </trkpt>
      <trkpt lat="45.10449" lon="4.5255">
        <ele>993.18</ele>
        <time>2016-09-13T10:49:47Z</time>
      </trkpt>
      <trkpt lat="45.10446" lon="4.52524">
        <ele>993.18</ele>
        <time>2016-09-13T10:50:04Z</time>
      </trkpt>
      <trkpt lat="45.10446" lon="4.52509">
        <ele>991.74</ele>
        <time>2016-09-13T10:50:14Z</time>
      </trkpt>
      <trkpt lat="45.10447" lon="4.52502">
        <ele>991.74</ele>
        <time>2016-09-13T10:50:19Z</time>
      </trkpt>
      <trkpt lat="45.10448" lon="4.52496">
        <ele>991.74</ele>
        <time>2016-09-13T10:50:23Z</time>
      </trkpt>
      <trkpt lat="45.10451" lon="4.52467">
        <ele>991.74</ele>
        <time>2016-09-13T10:50:43Z</time>
      </trkpt>
      <trkpt lat="45.10453" lon="4.52444">
        <ele>990.78</ele>
        <time>2016-09-13T10:50:59Z</time>
      </trkpt>
      <trkpt lat="45.10453" lon="4.5244">
        <ele>990.3</ele>
        <time>2016-09-13T10:51:01Z</time>
      </trkpt>
      <trkpt lat="45.10455" lon="4.52412">
        <ele>990.3</ele>
        <time>2016-09-13T10:51:20Z</time>
      </trkpt>
      <trkpt lat="45.10458" lon="4.52387">
        <ele>988.85</ele>
        <time>2016-09-13T10:51:37Z</time>
      </trkpt>
      <trkpt lat="45.10463" lon="4.52375">
        <ele>986.93</ele>
        <time>2016-09-13T10:51:53Z</time>
      </trkpt>
      <trkpt lat="45.10462" lon="4.52374">
        <ele>986.45</ele>
        <time>2016-09-13T10:52:21Z</time>
      </trkpt>
      <trkpt lat="45.1046" lon="4.52379">
        <ele>988.37</ele>
        <time>2016-09-13T10:52:55Z</time>
      </trkpt>
      <trkpt lat="45.10463" lon="4.52386">
        <ele>989.33</ele>
        <time>2016-09-13T10:53:10Z</time>
      </trkpt>
      <trkpt lat="45.10462" lon="4.52389">
        <ele>990.3</ele>
        <time>2016-09-13T10:53:40Z</time>
      </trkpt>
      <trkpt lat="45.10461" lon="4.52388">
        <ele>990.3</ele>
        <time>2016-09-13T10:54:15Z</time>
      </trkpt>
      <trkpt lat="45.10461" lon="4.52391">
        <ele>989.81</ele>
        <time>2016-09-13T10:54:47Z</time>
      </trkpt>
      <trkpt lat="45.1046" lon="4.52392">
        <ele>989.81</ele>
        <time>2016-09-13T10:55:12Z</time>
      </trkpt>
      <trkpt lat="45.10462" lon="4.5239">
        <ele>989.81</ele>
        <time>2016-09-13T10:55:49Z</time>
      </trkpt>
      <trkpt lat="45.10462" lon="4.5239">
        <ele>988.85</ele>
        <time>2016-09-13T10:56:03Z</time>
      </trkpt>
      <trkpt lat="45.10463" lon="4.5238">
        <ele>987.41</ele>
        <time>2016-09-13T10:56:21Z</time>
      </trkpt>
      <trkpt lat="45.10456" lon="4.52379">
        <ele>986.93</ele>
        <time>2016-09-13T10:56:36Z</time>
      </trkpt>
      <trkpt lat="45.10454" lon="4.524">
        <ele>986.93</ele>
        <time>2016-09-13T10:56:54Z</time>
      </trkpt>
      <trkpt lat="45.10454" lon="4.52405">
        <ele>988.37</ele>
        <time>2016-09-13T10:56:58Z</time>
      </trkpt>
      <trkpt lat="45.10453" lon="4.52429">
        <ele>989.33</ele>
        <time>2016-09-13T10:57:15Z</time>
      </trkpt>
      <trkpt lat="45.10451" lon="4.52465">
        <ele>990.78</ele>
        <time>2016-09-13T10:57:35Z</time>
      </trkpt>
      <trkpt lat="45.1045" lon="4.52479">
        <ele>991.74</ele>
        <time>2016-09-13T10:57:45Z</time>
      </trkpt>
      <trkpt lat="45.10447" lon="4.52512">
        <ele>993.18</ele>
        <time>2016-09-13T10:58:04Z</time>
      </trkpt>
      <trkpt lat="45.10447" lon="4.5254">
        <ele>993.66</ele>
        <time>2016-09-13T10:58:21Z</time>
      </trkpt>
      <trkpt lat="45.10453" lon="4.52568">
        <ele>993.66</ele>
        <time>2016-09-13T10:58:40Z</time>
      </trkpt>
      <trkpt lat="45.10456" lon="4.52579">
        <ele>993.18</ele>
        <time>2016-09-13T10:58:48Z</time>
      </trkpt>
      <trkpt lat="45.10473" lon="4.526">
        <ele>993.18</ele>
        <time>2016-09-13T10:59:08Z</time>
      </trkpt>
      <trkpt lat="45.10491" lon="4.52609">
        <ele>993.18</ele>
        <time>2016-09-13T10:59:26Z</time>
      </trkpt>
      <trkpt lat="45.10499" lon="4.52609">
        <ele>993.18</ele>
        <time>2016-09-13T10:59:33Z</time>
      </trkpt>
      <trkpt lat="45.10517" lon="4.5261">
        <ele>992.22</ele>
        <time>2016-09-13T10:59:47Z</time>
      </trkpt>
      <trkpt lat="45.10522" lon="4.52614">
        <ele>992.22</ele>
        <time>2016-09-13T10:59:51Z</time>
      </trkpt>
      <trkpt lat="45.10524" lon="4.52633">
        <ele>992.22</ele>
        <time>2016-09-13T11:00:06Z</time>
      </trkpt>
      <trkpt lat="45.1052" lon="4.52647">
        <ele>993.18</ele>
        <time>2016-09-13T11:00:14Z</time>
      </trkpt>
      <trkpt lat="45.10517" lon="4.52657">
        <ele>992.7</ele>
        <time>2016-09-13T11:00:20Z</time>
      </trkpt>
      <trkpt lat="45.10512" lon="4.52678">
        <ele>992.22</ele>
        <time>2016-09-13T11:00:36Z</time>
      </trkpt>
      <trkpt lat="45.10503" lon="4.52702">
        <ele>991.74</ele>
        <time>2016-09-13T11:00:53Z</time>
      </trkpt>
      <trkpt lat="45.10496" lon="4.5272">
        <ele>993.66</ele>
        <time>2016-09-13T11:01:07Z</time>
      </trkpt>
      <trkpt lat="45.10487" lon="4.52735">
        <ele>994.14</ele>
        <time>2016-09-13T11:01:21Z</time>
      </trkpt>
      <trkpt lat="45.10475" lon="4.52758">
        <ele>994.62</ele>
        <time>2016-09-13T11:01:38Z</time>
      </trkpt>
      <trkpt lat="45.10464" lon="4.52778">
        <ele>994.14</ele>
        <time>2016-09-13T11:01:55Z</time>
      </trkpt>
      <trkpt lat="45.10449" lon="4.52803">
        <ele>995.58</ele>
        <time>2016-09-13T11:02:12Z</time>
      </trkpt>
      <trkpt lat="45.1044" lon="4.52824">
        <ele>996.54</ele>
        <time>2016-09-13T11:02:30Z</time>
      </trkpt>
      <trkpt lat="45.10433" lon="4.52846">
        <ele>996.54</ele>
        <time>2016-09-13T11:02:47Z</time>
      </trkpt>
      <trkpt lat="45.10432" lon="4.52871">
        <ele>995.58</ele>
        <time>2016-09-13T11:03:05Z</time>
      </trkpt>
      <trkpt lat="45.10441" lon="4.52892">
        <ele>997.99</ele>
        <time>2016-09-13T11:03:22Z</time>
      </trkpt>
      <trkpt lat="45.10455" lon="4.52906">
        <ele>998.95</ele>
        <time>2016-09-13T11:03:39Z</time>
      </trkpt>
      <trkpt lat="45.10458" lon="4.5291">
        <ele>999.91</ele>
        <time>2016-09-13T11:03:43Z</time>
      </trkpt>
      <trkpt lat="45.10462" lon="4.52912">
        <ele>999.91</ele>
        <time>2016-09-13T11:03:46Z</time>
      </trkpt>
      <trkpt lat="45.10476" lon="4.52926">
        <ele>1000.39</ele>
        <time>2016-09-13T11:04:05Z</time>
      </trkpt>
      <trkpt lat="45.10488" lon="4.52943">
        <ele>1000.39</ele>
        <time>2016-09-13T11:04:22Z</time>
      </trkpt>
      <trkpt lat="45.10502" lon="4.5296">
        <ele>1000.39</ele>
        <time>2016-09-13T11:04:39Z</time>
      </trkpt>
      <trkpt lat="45.10509" lon="4.52964">
        <ele>1000.39</ele>
        <time>2016-09-13T11:04:54Z</time>
      </trkpt>
      <trkpt lat="45.10516" lon="4.52976">
        <ele>1000.39</ele>
        <time>2016-09-13T11:05:13Z</time>
      </trkpt>
      <trkpt lat="45.10518" lon="4.5299">
        <ele>1000.39</ele>
        <time>2016-09-13T11:05:24Z</time>
      </trkpt>
      <trkpt lat="45.10506" lon="4.53012">
        <ele>1000.39</ele>
        <time>2016-09-13T11:05:42Z</time>
      </trkpt>
      <trkpt lat="45.10501" lon="4.53019">
        <ele>1000.39</ele>
        <time>2016-09-13T11:05:46Z</time>
      </trkpt>
      <trkpt lat="45.1049" lon="4.53047">
        <ele>1000.39</ele>
        <time>2016-09-13T11:06:05Z</time>
      </trkpt>
      <trkpt lat="45.10483" lon="4.5307">
        <ele>1001.35</ele>
        <time>2016-09-13T11:06:20Z</time>
      </trkpt>
      <trkpt lat="45.1048" lon="4.53082">
        <ele>1000.39</ele>
        <time>2016-09-13T11:06:26Z</time>
      </trkpt>
      <trkpt lat="45.10477" lon="4.5311">
        <ele>998.47</ele>
        <time>2016-09-13T11:06:42Z</time>
      </trkpt>
      <trkpt lat="45.10474" lon="4.53137">
        <ele>1000.39</ele>
        <time>2016-09-13T11:06:58Z</time>
      </trkpt>
      <trkpt lat="45.10474" lon="4.53162">
        <ele>1001.83</ele>
        <time>2016-09-13T11:07:14Z</time>
      </trkpt>
      <trkpt lat="45.10476" lon="4.53185">
        <ele>1002.31</ele>
        <time>2016-09-13T11:07:29Z</time>
      </trkpt>
      <trkpt lat="45.10476" lon="4.53193">
        <ele>1000.87</ele>
        <time>2016-09-13T11:07:34Z</time>
      </trkpt>
      <trkpt lat="45.10477" lon="4.532">
        <ele>1001.83</ele>
        <time>2016-09-13T11:07:38Z</time>
      </trkpt>
      <trkpt lat="45.10477" lon="4.53207">
        <ele>1000.39</ele>
        <time>2016-09-13T11:07:42Z</time>
      </trkpt>
      <trkpt lat="45.10478" lon="4.53219">
        <ele>1002.31</ele>
        <time>2016-09-13T11:07:49Z</time>
      </trkpt>
      <trkpt lat="45.10481" lon="4.53246">
        <ele>1003.27</ele>
        <time>2016-09-13T11:08:06Z</time>
      </trkpt>
      <trkpt lat="45.10488" lon="4.53275">
        <ele>1003.27</ele>
        <time>2016-09-13T11:08:25Z</time>
      </trkpt>
      <trkpt lat="45.10495" lon="4.53287">
        <ele>1003.27</ele>
        <time>2016-09-13T11:08:36Z</time>
      </trkpt>
      <trkpt lat="45.10504" lon="4.53308">
        <ele>1004.23</ele>
        <time>2016-09-13T11:08:52Z</time>
      </trkpt>
      <trkpt lat="45.10511" lon="4.53327">
        <ele>1002.79</ele>
        <time>2016-09-13T11:09:05Z</time>
      </trkpt>
      <trkpt lat="45.10516" lon="4.53344">
        <ele>1003.27</ele>
        <time>2016-09-13T11:09:17Z</time>
      </trkpt>
      <trkpt lat="45.10524" lon="4.53371">
        <ele>1006.16</ele>
        <time>2016-09-13T11:09:35Z</time>
      </trkpt>
      <trkpt lat="45.10527" lon="4.53378">
        <ele>1004.72</ele>
        <time>2016-09-13T11:09:41Z</time>
      </trkpt>
      <trkpt lat="45.10535" lon="4.53393">
        <ele>1004.23</ele>
        <time>2016-09-13T11:09:54Z</time>
      </trkpt>
      <trkpt lat="45.10539" lon="4.53412">
        <ele>1004.23</ele>
        <time>2016-09-13T11:10:09Z</time>
      </trkpt>
      <trkpt lat="45.10541" lon="4.5342">
        <ele>1004.23</ele>
        <time>2016-09-13T11:10:30Z</time>
      </trkpt>
      <trkpt lat="45.10541" lon="4.53451">
        <ele>1004.23</ele>
        <time>2016-09-13T11:10:50Z</time>
      </trkpt>
      <trkpt lat="45.10538" lon="4.53462">
        <ele>1004.23</ele>
        <time>2016-09-13T11:10:58Z</time>
      </trkpt>
      <trkpt lat="45.10535" lon="4.53473">
        <ele>1005.68</ele>
        <time>2016-09-13T11:11:05Z</time>
      </trkpt>
      <trkpt lat="45.1053" lon="4.53497">
        <ele>1006.64</ele>
        <time>2016-09-13T11:11:22Z</time>
      </trkpt>
      <trkpt lat="45.10525" lon="4.53528">
        <ele>1007.6</ele>
        <time>2016-09-13T11:11:42Z</time>
      </trkpt>
      <trkpt lat="45.10523" lon="4.53558">
        <ele>1007.6</ele>
        <time>2016-09-13T11:12:02Z</time>
      </trkpt>
      <trkpt lat="45.10527" lon="4.53581">
        <ele>1009.04</ele>
        <time>2016-09-13T11:12:19Z</time>
      </trkpt>
      <trkpt lat="45.10528" lon="4.53584">
        <ele>1009.04</ele>
        <time>2016-09-13T11:12:21Z</time>
      </trkpt>
      <trkpt lat="45.10531" lon="4.53609">
        <ele>1010.96</ele>
        <time>2016-09-13T11:12:39Z</time>
      </trkpt>
      <trkpt lat="45.10533" lon="4.53631">
        <ele>1011.44</ele>
        <time>2016-09-13T11:12:54Z</time>
      </trkpt>
      <trkpt lat="45.10536" lon="4.53657">
        <ele>1011.44</ele>
        <time>2016-09-13T11:13:12Z</time>
      </trkpt>
      <trkpt lat="45.1054" lon="4.53686">
        <ele>1011.44</ele>
        <time>2016-09-13T11:13:29Z</time>
      </trkpt>
      <trkpt lat="45.10541" lon="4.53706">
        <ele>1011.44</ele>
        <time>2016-09-13T11:13:46Z</time>
      </trkpt>
      <trkpt lat="45.10542" lon="4.53726">
        <ele>1010.48</ele>
        <time>2016-09-13T11:14:01Z</time>
      </trkpt>
      <trkpt lat="45.10547" lon="4.53748">
        <ele>1011.44</ele>
        <time>2016-09-13T11:14:16Z</time>
      </trkpt>
      <trkpt lat="45.10552" lon="4.53767">
        <ele>1012.41</ele>
        <time>2016-09-13T11:14:29Z</time>
      </trkpt>
      <trkpt lat="45.10556" lon="4.53784">
        <ele>1012.41</ele>
        <time>2016-09-13T11:14:45Z</time>
      </trkpt>
      <trkpt lat="45.10559" lon="4.53804">
        <ele>1009.52</ele>
        <time>2016-09-13T11:14:59Z</time>
      </trkpt>
      <trkpt lat="45.10563" lon="4.5382">
        <ele>1012.89</ele>
        <time>2016-09-13T11:15:10Z</time>
      </trkpt>
      <trkpt lat="45.10567" lon="4.53851">
        <ele>1014.33</ele>
        <time>2016-09-13T11:15:29Z</time>
      </trkpt>
      <trkpt lat="45.1057" lon="4.53881">
        <ele>1015.29</ele>
        <time>2016-09-13T11:15:49Z</time>
      </trkpt>
      <trkpt lat="45.1057" lon="4.53883">
        <ele>1015.29</ele>
        <time>2016-09-13T11:15:50Z</time>
      </trkpt>
      <trkpt lat="45.1057" lon="4.53889">
        <ele>1015.77</ele>
        <time>2016-09-13T11:15:54Z</time>
      </trkpt>
      <trkpt lat="45.1057" lon="4.53896">
        <ele>1014.33</ele>
        <time>2016-09-13T11:15:58Z</time>
      </trkpt>
      <trkpt lat="45.10569" lon="4.53929">
        <ele>1015.77</ele>
        <time>2016-09-13T11:16:17Z</time>
      </trkpt>
      <trkpt lat="45.10568" lon="4.53931">
        <ele>1015.77</ele>
        <time>2016-09-13T11:16:18Z</time>
      </trkpt>
      <trkpt lat="45.10564" lon="4.53963">
        <ele>1017.69</ele>
        <time>2016-09-13T11:16:37Z</time>
      </trkpt>
      <trkpt lat="45.10562" lon="4.53997">
        <ele>1019.13</ele>
        <time>2016-09-13T11:16:56Z</time>
      </trkpt>
      <trkpt lat="45.10567" lon="4.54032">
        <ele>1019.62</ele>
        <time>2016-09-13T11:17:17Z</time>
      </trkpt>
      <trkpt lat="45.10582" lon="4.54058">
        <ele>1020.1</ele>
        <time>2016-09-13T11:17:39Z</time>
      </trkpt>
      <trkpt lat="45.10602" lon="4.54069">
        <ele>1021.06</ele>
        <time>2016-09-13T11:18:00Z</time>
      </trkpt>
      <trkpt lat="45.10616" lon="4.54074">
        <ele>1021.06</ele>
        <time>2016-09-13T11:18:13Z</time>
      </trkpt>
      <trkpt lat="45.10641" lon="4.54079">
        <ele>1020.58</ele>
        <time>2016-09-13T11:18:35Z</time>
      </trkpt>
      <trkpt lat="45.10658" lon="4.54087">
        <ele>1020.1</ele>
        <time>2016-09-13T11:18:51Z</time>
      </trkpt>
      <trkpt lat="45.10671" lon="4.54107">
        <ele>1019.62</ele>
        <time>2016-09-13T11:19:11Z</time>
      </trkpt>
      <trkpt lat="45.10676" lon="4.54115">
        <ele>1019.62</ele>
        <time>2016-09-13T11:19:19Z</time>
      </trkpt>
      <trkpt lat="45.10679" lon="4.54119">
        <ele>1021.06</ele>
        <time>2016-09-13T11:19:23Z</time>
      </trkpt>
      <trkpt lat="45.1069" lon="4.54137">
        <ele>1021.54</ele>
        <time>2016-09-13T11:19:43Z</time>
      </trkpt>
      <trkpt lat="45.10704" lon="4.54156">
        <ele>1020.1</ele>
        <time>2016-09-13T11:20:03Z</time>
      </trkpt>
      <trkpt lat="45.10707" lon="4.54161">
        <ele>1020.1</ele>
        <time>2016-09-13T11:20:19Z</time>
      </trkpt>
      <trkpt lat="45.10707" lon="4.54162">
        <ele>1021.54</ele>
        <time>2016-09-13T11:20:26Z</time>
      </trkpt>
      <trkpt lat="45.10709" lon="4.5416">
        <ele>1021.54</ele>
        <time>2016-09-13T11:20:49Z</time>
      </trkpt>
      <trkpt lat="45.10717" lon="4.5416">
        <ele>1023.46</ele>
        <time>2016-09-13T11:21:12Z</time>
      </trkpt>
      <trkpt lat="45.10731" lon="4.54162">
        <ele>1024.42</ele>
        <time>2016-09-13T11:21:34Z</time>
      </trkpt>
      <trkpt lat="45.10752" lon="4.54171">
        <ele>1025.86</ele>
        <time>2016-09-13T11:21:52Z</time>
      </trkpt>
      <trkpt lat="45.1075" lon="4.54159">
        <ele>1024.42</ele>
        <time>2016-09-13T11:22:25Z</time>
      </trkpt>
      <trkpt lat="45.10742" lon="4.54166">
        <ele>1024.9</ele>
        <time>2016-09-13T11:23:01Z</time>
      </trkpt>
      <trkpt lat="45.10741" lon="4.54166">
        <ele>1025.86</ele>
        <time>2016-09-13T11:23:03Z</time>
      </trkpt>
      <trkpt lat="45.1074" lon="4.54171">
        <ele>1026.83</ele>
        <time>2016-09-13T11:23:19Z</time>
      </trkpt>
      <trkpt lat="45.10744" lon="4.54178">
        <ele>1024.42</ele>
        <time>2016-09-13T11:23:35Z</time>
      </trkpt>
      <trkpt lat="45.10742" lon="4.54202">
        <ele>1024.42</ele>
        <time>2016-09-13T11:23:51Z</time>
      </trkpt>
      <trkpt lat="45.1074" lon="4.54204">
        <ele>1024.42</ele>
        <time>2016-09-13T11:23:53Z</time>
      </trkpt>
      <trkpt lat="45.10733" lon="4.54213">
        <ele>1023.94</ele>
        <time>2016-09-13T11:24:08Z</time>
      </trkpt>
      <trkpt lat="45.10715" lon="4.54226">
        <ele>1021.54</ele>
        <time>2016-09-13T11:24:25Z</time>
      </trkpt>
      <trkpt lat="45.10713" lon="4.54226">
        <ele>1020.1</ele>
        <time>2016-09-13T11:24:27Z</time>
      </trkpt>
      <trkpt lat="45.10705" lon="4.54229">
        <ele>1023.46</ele>
        <time>2016-09-13T11:24:35Z</time>
      </trkpt>
      <trkpt lat="45.10682" lon="4.54233">
        <ele>1021.54</ele>
        <time>2016-09-13T11:24:53Z</time>
      </trkpt>
      <trkpt lat="45.10679" lon="4.54234">
        <ele>1019.62</ele>
        <time>2016-09-13T11:25:07Z</time>
      </trkpt>
      <trkpt lat="45.10679" lon="4.54233">
        <ele>1019.62</ele>
        <time>2016-09-13T11:25:08Z</time>
      </trkpt>
      <trkpt lat="45.10678" lon="4.54229">
        <ele>1021.06</ele>
        <time>2016-09-13T11:25:11Z</time>
      </trkpt>
      <trkpt lat="45.1068" lon="4.54224">
        <ele>1022.02</ele>
        <time>2016-09-13T11:25:15Z</time>
      </trkpt>
      <trkpt lat="45.10686" lon="4.5422">
        <ele>1020.1</ele>
        <time>2016-09-13T11:25:21Z</time>
      </trkpt>
      <trkpt lat="45.10703" lon="4.54206">
        <ele>1021.06</ele>
        <time>2016-09-13T11:25:36Z</time>
      </trkpt>
      <trkpt lat="45.10711" lon="4.54184">
        <ele>1022.02</ele>
        <time>2016-09-13T11:25:54Z</time>
      </trkpt>
      <trkpt lat="45.10711" lon="4.54179">
        <ele>1020.58</ele>
        <time>2016-09-13T11:26:00Z</time>
      </trkpt>
      <trkpt lat="45.10713" lon="4.54175">
        <ele>1022.02</ele>
        <time>2016-09-13T11:26:08Z</time>
      </trkpt>
      <trkpt lat="45.10705" lon="4.54165">
        <ele>1022.5</ele>
        <time>2016-09-13T11:26:34Z</time>
      </trkpt>
      <trkpt lat="45.10701" lon="4.54165">
        <ele>1021.06</ele>
        <time>2016-09-13T11:26:54Z</time>
      </trkpt>
      <trkpt lat="45.10702" lon="4.5416">
        <ele>1020.58</ele>
        <time>2016-09-13T11:27:16Z</time>
      </trkpt>
      <trkpt lat="45.10702" lon="4.5416">
        <ele>1021.06</ele>
        <time>2016-09-13T11:27:20Z</time>
      </trkpt>
      <trkpt lat="45.10706" lon="4.54155">
        <ele>1022.02</ele>
        <time>2016-09-13T11:27:42Z</time>
      </trkpt>
      <trkpt lat="45.10703" lon="4.54159">
        <ele>1018.17</ele>
        <time>2016-09-13T11:28:02Z</time>
      </trkpt>
      <trkpt lat="45.10703" lon="4.54159">
        <ele>1023.46</ele>
        <time>2016-09-13T11:28:03Z</time>
      </trkpt>
      <trkpt lat="45.10705" lon="4.54162">
        <ele>1021.54</ele>
        <time>2016-09-13T11:28:06Z</time>
      </trkpt>
      <trkpt lat="45.10709" lon="4.54166">
        <ele>1021.06</ele>
        <time>2016-09-13T11:28:31Z</time>
      </trkpt>
      <trkpt lat="45.10708" lon="4.54166">
        <ele>1020.58</ele>
        <time>2016-09-13T11:28:58Z</time>
      </trkpt>
      <trkpt lat="45.10708" lon="4.54167">
        <ele>1019.62</ele>
        <time>2016-09-13T11:29:28Z</time>
      </trkpt>
      <trkpt lat="45.1071" lon="4.54166">
        <ele>1021.06</ele>
        <time>2016-09-13T11:29:37Z</time>
      </trkpt>
      <trkpt lat="45.10709" lon="4.54168">
        <ele>1021.54</ele>
        <time>2016-09-13T11:30:02Z</time>
      </trkpt>
      <trkpt lat="45.10706" lon="4.5417">
        <ele>1019.62</ele>
        <time>2016-09-13T11:30:21Z</time>
      </trkpt>
      <trkpt lat="45.10708" lon="4.5417">
        <ele>1017.69</ele>
        <time>2016-09-13T11:30:24Z</time>
      </trkpt>
      <trkpt lat="45.10689" lon="4.54208">
        <ele>1039.32</ele>
        <time>2016-09-13T11:45:44Z</time>
      </trkpt>
      <trkpt lat="45.10689" lon="4.54208">
        <ele>1039.32</ele>
        <time>2016-09-13T11:45:45Z</time>
      </trkpt>
      <trkpt lat="45.10696" lon="4.54185">
        <ele>1038.84</ele>
        <time>2016-09-13T11:46:08Z</time>
      </trkpt>
      <trkpt lat="45.107" lon="4.5417">
        <ele>1038.84</ele>
        <time>2016-09-13T11:46:29Z</time>
      </trkpt>
      <trkpt lat="45.10701" lon="4.54176">
        <ele>1039.8</ele>
        <time>2016-09-13T11:46:51Z</time>
      </trkpt>
      <trkpt lat="45.10703" lon="4.54172">
        <ele>1038.36</ele>
        <time>2016-09-13T11:47:13Z</time>
      </trkpt>
      <trkpt lat="45.10703" lon="4.54171">
        <ele>1039.8</ele>
        <time>2016-09-13T11:47:24Z</time>
      </trkpt>
      <trkpt lat="45.10705" lon="4.54171">
        <ele>1039.8</ele>
        <time>2016-09-13T11:47:44Z</time>
      </trkpt>
      <trkpt lat="45.10707" lon="4.5417">
        <ele>1038.84</ele>
        <time>2016-09-13T11:48:03Z</time>
      </trkpt>
      <trkpt lat="45.10706" lon="4.54171">
        <ele>1037.4</ele>
        <time>2016-09-13T11:48:25Z</time>
      </trkpt>
      <trkpt lat="45.10706" lon="4.54172">
        <ele>1038.36</ele>
        <time>2016-09-13T11:48:46Z</time>
      </trkpt>
      <trkpt lat="45.10703" lon="4.54175">
        <ele>1038.84</ele>
        <time>2016-09-13T11:49:11Z</time>
      </trkpt>
      <trkpt lat="45.10701" lon="4.54181">
        <ele>1038.36</ele>
        <time>2016-09-13T11:49:36Z</time>
      </trkpt>
      <trkpt lat="45.107" lon="4.54182">
        <ele>1036.92</ele>
        <time>2016-09-13T11:49:41Z</time>
      </trkpt>
      <trkpt lat="45.10699" lon="4.54185">
        <ele>1036.92</ele>
        <time>2016-09-13T11:50:07Z</time>
      </trkpt>
      <trkpt lat="45.10698" lon="4.5418">
        <ele>1036.44</ele>
        <time>2016-09-13T11:50:35Z</time>
      </trkpt>
      <trkpt lat="45.10697" lon="4.54181">
        <ele>1035.48</ele>
        <time>2016-09-13T11:51:00Z</time>
      </trkpt>
      <trkpt lat="45.10698" lon="4.54182">
        <ele>1035.48</ele>
        <time>2016-09-13T11:51:10Z</time>
      </trkpt>
      <trkpt lat="45.10699" lon="4.54181">
        <ele>1036.44</ele>
        <time>2016-09-13T11:51:17Z</time>
      </trkpt>
      <trkpt lat="45.10702" lon="4.5417">
        <ele>1037.4</ele>
        <time>2016-09-13T11:51:31Z</time>
      </trkpt>
      <trkpt lat="45.10705" lon="4.54163">
        <ele>1037.4</ele>
        <time>2016-09-13T11:51:49Z</time>
      </trkpt>
      <trkpt lat="45.10704" lon="4.54155">
        <ele>1037.88</ele>
        <time>2016-09-13T11:52:14Z</time>
      </trkpt>
      <trkpt lat="45.10711" lon="4.54152">
        <ele>1037.4</ele>
        <time>2016-09-13T11:52:38Z</time>
      </trkpt>
      <trkpt lat="45.10713" lon="4.54158">
        <ele>1037.4</ele>
        <time>2016-09-13T11:52:58Z</time>
      </trkpt>
      <trkpt lat="45.10711" lon="4.54162">
        <ele>1035.96</ele>
        <time>2016-09-13T11:53:06Z</time>
      </trkpt>
      <trkpt lat="45.10706" lon="4.54161">
        <ele>1035.48</ele>
        <time>2016-09-13T11:53:20Z</time>
      </trkpt>
      <trkpt lat="45.10709" lon="4.54172">
        <ele>1035.48</ele>
        <time>2016-09-13T11:53:36Z</time>
      </trkpt>
      <trkpt lat="45.10712" lon="4.54188">
        <ele>1035.48</ele>
        <time>2016-09-13T11:53:54Z</time>
      </trkpt>
      <trkpt lat="45.10712" lon="4.5419">
        <ele>1035</ele>
        <time>2016-09-13T11:53:56Z</time>
      </trkpt>
      <trkpt lat="45.10702" lon="4.54209">
        <ele>1036.44</ele>
        <time>2016-09-13T11:54:13Z</time>
      </trkpt>
      <trkpt lat="45.10693" lon="4.54214">
        <ele>1034.52</ele>
        <time>2016-09-13T11:54:22Z</time>
      </trkpt>
      <trkpt lat="45.10679" lon="4.54221">
        <ele>1034.52</ele>
        <time>2016-09-13T11:54:38Z</time>
      </trkpt>
      <trkpt lat="45.10677" lon="4.5423">
        <ele>1035.48</ele>
        <time>2016-09-13T11:54:52Z</time>
      </trkpt>
      <trkpt lat="45.1068" lon="4.54236">
        <ele>1035.48</ele>
        <time>2016-09-13T11:55:12Z</time>
      </trkpt>
      <trkpt lat="45.1069" lon="4.54241">
        <ele>1035.96</ele>
        <time>2016-09-13T11:55:22Z</time>
      </trkpt>
      <trkpt lat="45.10705" lon="4.54248">
        <ele>1036.44</ele>
        <time>2016-09-13T11:55:38Z</time>
      </trkpt>
      <trkpt lat="45.10716" lon="4.5425">
        <ele>1037.88</ele>
        <time>2016-09-13T11:55:52Z</time>
      </trkpt>
      <trkpt lat="45.10724" lon="4.54231">
        <ele>1038.36</ele>
        <time>2016-09-13T11:56:10Z</time>
      </trkpt>
      <trkpt lat="45.10738" lon="4.54217">
        <ele>1039.32</ele>
        <time>2016-09-13T11:56:29Z</time>
      </trkpt>
      <trkpt lat="45.1075" lon="4.54216">
        <ele>1040.76</ele>
        <time>2016-09-13T11:56:52Z</time>
      </trkpt>
      <trkpt lat="45.10758" lon="4.5422">
        <ele>1042.69</ele>
        <time>2016-09-13T11:57:10Z</time>
      </trkpt>
      <trkpt lat="45.10761" lon="4.54231">
        <ele>1043.17</ele>
        <time>2016-09-13T11:57:28Z</time>
      </trkpt>
      <trkpt lat="45.10764" lon="4.54238">
        <ele>1043.17</ele>
        <time>2016-09-13T11:57:51Z</time>
      </trkpt>
      <trkpt lat="45.1077" lon="4.54245">
        <ele>1046.05</ele>
        <time>2016-09-13T11:58:08Z</time>
      </trkpt>
      <trkpt lat="45.10783" lon="4.54252">
        <ele>1048.45</ele>
        <time>2016-09-13T11:58:30Z</time>
      </trkpt>
      <trkpt lat="45.10799" lon="4.54254">
        <ele>1050.38</ele>
        <time>2016-09-13T11:58:48Z</time>
      </trkpt>
      <trkpt lat="45.10802" lon="4.54261">
        <ele>1051.34</ele>
        <time>2016-09-13T11:59:10Z</time>
      </trkpt>
      <trkpt lat="45.10801" lon="4.54263">
        <ele>1050.38</ele>
        <time>2016-09-13T11:59:35Z</time>
      </trkpt>
      <trkpt lat="45.10804" lon="4.54263">
        <ele>1051.82</ele>
        <time>2016-09-13T12:00:10Z</time>
      </trkpt>
      <trkpt lat="45.10803" lon="4.54262">
        <ele>1051.82</ele>
        <time>2016-09-13T12:00:43Z</time>
      </trkpt>
      <trkpt lat="45.10804" lon="4.54268">
        <ele>1051.82</ele>
        <time>2016-09-13T12:01:14Z</time>
      </trkpt>
      <trkpt lat="45.10799" lon="4.54275">
        <ele>1051.82</ele>
        <time>2016-09-13T12:01:52Z</time>
      </trkpt>
      <trkpt lat="45.10803" lon="4.54265">
        <ele>1052.3</ele>
        <time>2016-09-13T12:02:20Z</time>
      </trkpt>
      <trkpt lat="45.10819" lon="4.54256">
        <ele>1053.74</ele>
        <time>2016-09-13T12:02:37Z</time>
      </trkpt>
      <trkpt lat="45.10832" lon="4.54247">
        <ele>1055.67</ele>
        <time>2016-09-13T12:02:58Z</time>
      </trkpt>
      <trkpt lat="45.10841" lon="4.54243">
        <ele>1059.03</ele>
        <time>2016-09-13T12:03:12Z</time>
      </trkpt>
      <trkpt lat="45.10852" lon="4.54243">
        <ele>1060.47</ele>
        <time>2016-09-13T12:03:32Z</time>
      </trkpt>
      <trkpt lat="45.10861" lon="4.54238">
        <ele>1062.87</ele>
        <time>2016-09-13T12:03:49Z</time>
      </trkpt>
      <trkpt lat="45.10876" lon="4.5424">
        <ele>1065.28</ele>
        <time>2016-09-13T12:04:10Z</time>
      </trkpt>
      <trkpt lat="45.10889" lon="4.54236">
        <ele>1068.16</ele>
        <time>2016-09-13T12:04:31Z</time>
      </trkpt>
      <trkpt lat="45.10898" lon="4.54227">
        <ele>1069.6</ele>
        <time>2016-09-13T12:04:51Z</time>
      </trkpt>
      <trkpt lat="45.10916" lon="4.54219">
        <ele>1072.01</ele>
        <time>2016-09-13T12:05:10Z</time>
      </trkpt>
      <trkpt lat="45.10926" lon="4.54209">
        <ele>1073.45</ele>
        <time>2016-09-13T12:05:27Z</time>
      </trkpt>
      <trkpt lat="45.10923" lon="4.54213">
        <ele>1072.97</ele>
        <time>2016-09-13T12:05:55Z</time>
      </trkpt>
      <trkpt lat="45.10925" lon="4.54212">
        <ele>1072.97</ele>
        <time>2016-09-13T12:06:16Z</time>
      </trkpt>
      <trkpt lat="45.1093" lon="4.54211">
        <ele>1074.41</ele>
        <time>2016-09-13T12:06:47Z</time>
      </trkpt>
      <trkpt lat="45.10929" lon="4.54213">
        <ele>1074.41</ele>
        <time>2016-09-13T12:07:19Z</time>
      </trkpt>
      <trkpt lat="45.10925" lon="4.5421">
        <ele>1074.41</ele>
        <time>2016-09-13T12:07:52Z</time>
      </trkpt>
      <trkpt lat="45.10927" lon="4.54211">
        <ele>1074.89</ele>
        <time>2016-09-13T12:08:31Z</time>
      </trkpt>
      <trkpt lat="45.10928" lon="4.54213">
        <ele>1074.89</ele>
        <time>2016-09-13T12:09:08Z</time>
      </trkpt>
      <trkpt lat="45.10926" lon="4.54216">
        <ele>1074.89</ele>
        <time>2016-09-13T12:09:42Z</time>
      </trkpt>
      <trkpt lat="45.10931" lon="4.54215">
        <ele>1074.89</ele>
        <time>2016-09-13T12:10:10Z</time>
      </trkpt>
      <trkpt lat="45.10929" lon="4.54213">
        <ele>1075.85</ele>
        <time>2016-09-13T12:10:43Z</time>
      </trkpt>
      <trkpt lat="45.10933" lon="4.54211">
        <ele>1075.37</ele>
        <time>2016-09-13T12:11:13Z</time>
      </trkpt>
      <trkpt lat="45.10935" lon="4.54208">
        <ele>1075.37</ele>
        <time>2016-09-13T12:11:39Z</time>
      </trkpt>
      <trkpt lat="45.10934" lon="4.54211">
        <ele>1075.37</ele>
        <time>2016-09-13T12:12:07Z</time>
      </trkpt>
      <trkpt lat="45.10937" lon="4.54201">
        <ele>1076.81</ele>
        <time>2016-09-13T12:12:23Z</time>
      </trkpt>
      <trkpt lat="45.10944" lon="4.54191">
        <ele>1077.29</ele>
        <time>2016-09-13T12:12:39Z</time>
      </trkpt>
      <trkpt lat="45.10951" lon="4.54183">
        <ele>1079.22</ele>
        <time>2016-09-13T12:12:56Z</time>
      </trkpt>
      <trkpt lat="45.10957" lon="4.54177">
        <ele>1079.7</ele>
        <time>2016-09-13T12:13:18Z</time>
      </trkpt>
      <trkpt lat="45.10959" lon="4.54174">
        <ele>1080.18</ele>
        <time>2016-09-13T12:13:40Z</time>
      </trkpt>
      <trkpt lat="45.10962" lon="4.54171">
        <ele>1079.7</ele>
        <time>2016-09-13T12:13:58Z</time>
      </trkpt>
      <trkpt lat="45.1096" lon="4.54171">
        <ele>1079.22</ele>
        <time>2016-09-13T12:14:32Z</time>
      </trkpt>
      <trkpt lat="45.10959" lon="4.54169">
        <ele>1080.66</ele>
        <time>2016-09-13T12:15:09Z</time>
      </trkpt>
      <trkpt lat="45.10962" lon="4.54171">
        <ele>1079.22</ele>
        <time>2016-09-13T12:15:27Z</time>
      </trkpt>
      <trkpt lat="45.10963" lon="4.54171">
        <ele>1080.18</ele>
        <time>2016-09-13T12:15:35Z</time>
      </trkpt>
      <trkpt lat="45.10963" lon="4.54173">
        <ele>1079.7</ele>
        <time>2016-09-13T12:16:09Z</time>
      </trkpt>
      <trkpt lat="45.10961" lon="4.54169">
        <ele>1079.22</ele>
        <time>2016-09-13T12:16:41Z</time>
      </trkpt>
      <trkpt lat="45.10965" lon="4.54161">
        <ele>1078.74</ele>
        <time>2016-09-13T12:17:07Z</time>
      </trkpt>
      <trkpt lat="45.10974" lon="4.54152">
        <ele>1080.66</ele>
        <time>2016-09-13T12:17:26Z</time>
      </trkpt>
      <trkpt lat="45.10982" lon="4.54143">
        <ele>1082.1</ele>
        <time>2016-09-13T12:17:45Z</time>
      </trkpt>
      <trkpt lat="45.10996" lon="4.5413">
        <ele>1084.5</ele>
        <time>2016-09-13T12:18:08Z</time>
      </trkpt>
      <trkpt lat="45.11003" lon="4.54119">
        <ele>1086.43</ele>
        <time>2016-09-13T12:18:26Z</time>
      </trkpt>
      <trkpt lat="45.1101" lon="4.54103">
        <ele>1089.79</ele>
        <time>2016-09-13T12:18:46Z</time>
      </trkpt>
      <trkpt lat="45.1102" lon="4.54096">
        <ele>1091.23</ele>
        <time>2016-09-13T12:19:02Z</time>
      </trkpt>
      <trkpt lat="45.11025" lon="4.54085">
        <ele>1092.2</ele>
        <time>2016-09-13T12:19:21Z</time>
      </trkpt>
      <trkpt lat="45.11031" lon="4.54072">
        <ele>1094.6</ele>
        <time>2016-09-13T12:19:38Z</time>
      </trkpt>
      <trkpt lat="45.11036" lon="4.54065">
        <ele>1097.48</ele>
        <time>2016-09-13T12:19:51Z</time>
      </trkpt>
      <trkpt lat="45.11044" lon="4.54054">
        <ele>1099.4</ele>
        <time>2016-09-13T12:20:10Z</time>
      </trkpt>
      <trkpt lat="45.11051" lon="4.54043">
        <ele>1102.29</ele>
        <time>2016-09-13T12:20:30Z</time>
      </trkpt>
      <trkpt lat="45.11055" lon="4.54034">
        <ele>1104.69</ele>
        <time>2016-09-13T12:20:47Z</time>
      </trkpt>
      <trkpt lat="45.11063" lon="4.54019">
        <ele>1106.61</ele>
        <time>2016-09-13T12:21:07Z</time>
      </trkpt>
      <trkpt lat="45.11072" lon="4.54014">
        <ele>1109.02</ele>
        <time>2016-09-13T12:21:25Z</time>
      </trkpt>
      <trkpt lat="45.11085" lon="4.54007">
        <ele>1111.42</ele>
        <time>2016-09-13T12:21:46Z</time>
      </trkpt>
      <trkpt lat="45.11087" lon="4.54006">
        <ele>1111.9</ele>
        <time>2016-09-13T12:22:12Z</time>
      </trkpt>
      <trkpt lat="45.11092" lon="4.54004">
        <ele>1113.34</ele>
        <time>2016-09-13T12:22:32Z</time>
      </trkpt>
      <trkpt lat="45.11104" lon="4.54006">
        <ele>1114.79</ele>
        <time>2016-09-13T12:22:50Z</time>
      </trkpt>
      <trkpt lat="45.11117" lon="4.54007">
        <ele>1116.71</ele>
        <time>2016-09-13T12:23:10Z</time>
      </trkpt>
      <trkpt lat="45.11132" lon="4.54004">
        <ele>1118.15</ele>
        <time>2016-09-13T12:23:28Z</time>
      </trkpt>
      <trkpt lat="45.11142" lon="4.53998">
        <ele>1120.55</ele>
        <time>2016-09-13T12:23:46Z</time>
      </trkpt>
      <trkpt lat="45.11156" lon="4.53992">
        <ele>1122.48</ele>
        <time>2016-09-13T12:24:05Z</time>
      </trkpt>
      <trkpt lat="45.11169" lon="4.53987">
        <ele>1124.4</ele>
        <time>2016-09-13T12:24:24Z</time>
      </trkpt>
      <trkpt lat="45.11174" lon="4.53984">
        <ele>1124.4</ele>
        <time>2016-09-13T12:24:41Z</time>
      </trkpt>
      <trkpt lat="45.11179" lon="4.53983">
        <ele>1123.92</ele>
        <time>2016-09-13T12:25:03Z</time>
      </trkpt>
      <trkpt lat="45.11192" lon="4.53987">
        <ele>1123.44</ele>
        <time>2016-09-13T12:25:19Z</time>
      </trkpt>
      <trkpt lat="45.11201" lon="4.53989">
        <ele>1122.48</ele>
        <time>2016-09-13T12:25:33Z</time>
      </trkpt>
      <trkpt lat="45.11216" lon="4.53995">
        <ele>1121.52</ele>
        <time>2016-09-13T12:25:52Z</time>
      </trkpt>
      <trkpt lat="45.11233" lon="4.54004">
        <ele>1120.55</ele>
        <time>2016-09-13T12:26:07Z</time>
      </trkpt>
      <trkpt lat="45.11243" lon="4.54025">
        <ele>1120.07</ele>
        <time>2016-09-13T12:26:25Z</time>
      </trkpt>
      <trkpt lat="45.11245" lon="4.54045">
        <ele>1120.07</ele>
        <time>2016-09-13T12:26:42Z</time>
      </trkpt>
      <trkpt lat="45.11249" lon="4.54067">
        <ele>1120.07</ele>
        <time>2016-09-13T12:27:00Z</time>
      </trkpt>
      <trkpt lat="45.11252" lon="4.54091">
        <ele>1121.52</ele>
        <time>2016-09-13T12:27:17Z</time>
      </trkpt>
      <trkpt lat="45.11259" lon="4.54112">
        <ele>1121.52</ele>
        <time>2016-09-13T12:27:32Z</time>
      </trkpt>
      <trkpt lat="45.11267" lon="4.54128">
        <ele>1123.92</ele>
        <time>2016-09-13T12:27:48Z</time>
      </trkpt>
      <trkpt lat="45.11272" lon="4.54144">
        <ele>1125.36</ele>
        <time>2016-09-13T12:28:02Z</time>
      </trkpt>
      <trkpt lat="45.11278" lon="4.54165">
        <ele>1125.36</ele>
        <time>2016-09-13T12:28:19Z</time>
      </trkpt>
      <trkpt lat="45.11285" lon="4.54185">
        <ele>1126.32</ele>
        <time>2016-09-13T12:28:40Z</time>
      </trkpt>
      <trkpt lat="45.11296" lon="4.54205">
        <ele>1126.8</ele>
        <time>2016-09-13T12:28:57Z</time>
      </trkpt>
      <trkpt lat="45.11308" lon="4.54218">
        <ele>1126.8</ele>
        <time>2016-09-13T12:29:15Z</time>
      </trkpt>
      <trkpt lat="45.11319" lon="4.54225">
        <ele>1126.8</ele>
        <time>2016-09-13T12:29:28Z</time>
      </trkpt>
      <trkpt lat="45.11338" lon="4.54226">
        <ele>1126.8</ele>
        <time>2016-09-13T12:29:48Z</time>
      </trkpt>
      <trkpt lat="45.11358" lon="4.54225">
        <ele>1128.24</ele>
        <time>2016-09-13T12:30:06Z</time>
      </trkpt>
      <trkpt lat="45.11377" lon="4.54225">
        <ele>1128.73</ele>
        <time>2016-09-13T12:30:25Z</time>
      </trkpt>
      <trkpt lat="45.11396" lon="4.54224">
        <ele>1128.73</ele>
        <time>2016-09-13T12:30:46Z</time>
      </trkpt>
      <trkpt lat="45.1141" lon="4.54221">
        <ele>1131.61</ele>
        <time>2016-09-13T12:31:03Z</time>
      </trkpt>
      <trkpt lat="45.11424" lon="4.54214">
        <ele>1133.53</ele>
        <time>2016-09-13T12:31:21Z</time>
      </trkpt>
      <trkpt lat="45.11436" lon="4.5421">
        <ele>1136.42</ele>
        <time>2016-09-13T12:31:35Z</time>
      </trkpt>
      <trkpt lat="45.11452" lon="4.54205">
        <ele>1137.38</ele>
        <time>2016-09-13T12:31:54Z</time>
      </trkpt>
      <trkpt lat="45.11468" lon="4.542">
        <ele>1137.86</ele>
        <time>2016-09-13T12:32:15Z</time>
      </trkpt>
      <trkpt lat="45.11481" lon="4.54192">
        <ele>1138.34</ele>
        <time>2016-09-13T12:32:32Z</time>
      </trkpt>
      <trkpt lat="45.11499" lon="4.54178">
        <ele>1138.34</ele>
        <time>2016-09-13T12:32:49Z</time>
      </trkpt>
      <trkpt lat="45.11511" lon="4.54169">
        <ele>1138.34</ele>
        <time>2016-09-13T12:33:04Z</time>
      </trkpt>
      <trkpt lat="45.11528" lon="4.54158">
        <ele>1138.34</ele>
        <time>2016-09-13T12:33:20Z</time>
      </trkpt>
      <trkpt lat="45.11541" lon="4.54143">
        <ele>1137.86</ele>
        <time>2016-09-13T12:33:40Z</time>
      </trkpt>
      <trkpt lat="45.11557" lon="4.54126">
        <ele>1137.86</ele>
        <time>2016-09-13T12:33:58Z</time>
      </trkpt>
      <trkpt lat="45.11572" lon="4.5411">
        <ele>1136.9</ele>
        <time>2016-09-13T12:34:15Z</time>
      </trkpt>
      <trkpt lat="45.11581" lon="4.54096">
        <ele>1136.42</ele>
        <time>2016-09-13T12:34:33Z</time>
      </trkpt>
      <trkpt lat="45.11587" lon="4.54085">
        <ele>1135.94</ele>
        <time>2016-09-13T12:34:52Z</time>
      </trkpt>
      <trkpt lat="45.11588" lon="4.54084">
        <ele>1134.49</ele>
        <time>2016-09-13T12:35:16Z</time>
      </trkpt>
      <trkpt lat="45.11602" lon="4.54076">
        <ele>1134.97</ele>
        <time>2016-09-13T12:35:33Z</time>
      </trkpt>
      <trkpt lat="45.11605" lon="4.54072">
        <ele>1133.53</ele>
        <time>2016-09-13T12:35:39Z</time>
      </trkpt>
      <trkpt lat="45.11612" lon="4.5406">
        <ele>1131.13</ele>
        <time>2016-09-13T12:35:55Z</time>
      </trkpt>
      <trkpt lat="45.11615" lon="4.54047">
        <ele>1128.73</ele>
        <time>2016-09-13T12:36:11Z</time>
      </trkpt>
      <trkpt lat="45.1162" lon="4.54029">
        <ele>1127.28</ele>
        <time>2016-09-13T12:36:28Z</time>
      </trkpt>
      <trkpt lat="45.11622" lon="4.54015">
        <ele>1125.36</ele>
        <time>2016-09-13T12:36:45Z</time>
      </trkpt>
      <trkpt lat="45.11623" lon="4.54006">
        <ele>1123.92</ele>
        <time>2016-09-13T12:37:03Z</time>
      </trkpt>
      <trkpt lat="45.11621" lon="4.53991">
        <ele>1121.03</ele>
        <time>2016-09-13T12:37:21Z</time>
      </trkpt>
      <trkpt lat="45.11621" lon="4.53981">
        <ele>1118.15</ele>
        <time>2016-09-13T12:37:42Z</time>
      </trkpt>
      <trkpt lat="45.11624" lon="4.53963">
        <ele>1115.75</ele>
        <time>2016-09-13T12:38:03Z</time>
      </trkpt>
      <trkpt lat="45.11627" lon="4.53945">
        <ele>1112.38</ele>
        <time>2016-09-13T12:38:24Z</time>
      </trkpt>
      <trkpt lat="45.1163" lon="4.5393">
        <ele>1110.94</ele>
        <time>2016-09-13T12:38:43Z</time>
      </trkpt>
      <trkpt lat="45.11635" lon="4.53923">
        <ele>1110.46</ele>
        <time>2016-09-13T12:39:06Z</time>
      </trkpt>
      <trkpt lat="45.11636" lon="4.53924">
        <ele>1109.98</ele>
        <time>2016-09-13T12:39:34Z</time>
      </trkpt>
      <trkpt lat="45.11639" lon="4.53919">
        <ele>1109.98</ele>
        <time>2016-09-13T12:40:02Z</time>
      </trkpt>
      <trkpt lat="45.11641" lon="4.53906">
        <ele>1109.02</ele>
        <time>2016-09-13T12:40:16Z</time>
      </trkpt>
      <trkpt lat="45.11644" lon="4.53899">
        <ele>1108.06</ele>
        <time>2016-09-13T12:40:30Z</time>
      </trkpt>
      <trkpt lat="45.11642" lon="4.53886">
        <ele>1107.58</ele>
        <time>2016-09-13T12:40:47Z</time>
      </trkpt>
      <trkpt lat="45.1164" lon="4.53868">
        <ele>1106.13</ele>
        <time>2016-09-13T12:41:02Z</time>
      </trkpt>
      <trkpt lat="45.1164" lon="4.53848">
        <ele>1105.65</ele>
        <time>2016-09-13T12:41:18Z</time>
      </trkpt>
      <trkpt lat="45.11642" lon="4.5383">
        <ele>1103.25</ele>
        <time>2016-09-13T12:41:34Z</time>
      </trkpt>
      <trkpt lat="45.11644" lon="4.5381">
        <ele>1100.85</ele>
        <time>2016-09-13T12:41:51Z</time>
      </trkpt>
      <trkpt lat="45.11644" lon="4.53807">
        <ele>1100.85</ele>
        <time>2016-09-13T12:41:54Z</time>
      </trkpt>
      <trkpt lat="45.11649" lon="4.53788">
        <ele>1097.96</ele>
        <time>2016-09-13T12:42:11Z</time>
      </trkpt>
      <trkpt lat="45.11654" lon="4.53777">
        <ele>1096.52</ele>
        <time>2016-09-13T12:42:23Z</time>
      </trkpt>
      <trkpt lat="45.11659" lon="4.53762">
        <ele>1095.56</ele>
        <time>2016-09-13T12:42:37Z</time>
      </trkpt>
      <trkpt lat="45.11665" lon="4.53745">
        <ele>1093.64</ele>
        <time>2016-09-13T12:42:52Z</time>
      </trkpt>
      <trkpt lat="45.1167" lon="4.53727">
        <ele>1092.2</ele>
        <time>2016-09-13T12:43:08Z</time>
      </trkpt>
      <trkpt lat="45.11677" lon="4.53709">
        <ele>1090.75</ele>
        <time>2016-09-13T12:43:24Z</time>
      </trkpt>
      <trkpt lat="45.11689" lon="4.53688">
        <ele>1088.83</ele>
        <time>2016-09-13T12:43:41Z</time>
      </trkpt>
      <trkpt lat="45.11703" lon="4.53671">
        <ele>1087.39</ele>
        <time>2016-09-13T12:43:58Z</time>
      </trkpt>
      <trkpt lat="45.1171" lon="4.53657">
        <ele>1086.91</ele>
        <time>2016-09-13T12:44:13Z</time>
      </trkpt>
      <trkpt lat="45.11712" lon="4.53656">
        <ele>1086.91</ele>
        <time>2016-09-13T12:44:15Z</time>
      </trkpt>
      <trkpt lat="45.11728" lon="4.53639">
        <ele>1085.95</ele>
        <time>2016-09-13T12:44:36Z</time>
      </trkpt>
      <trkpt lat="45.11747" lon="4.53628">
        <ele>1085.95</ele>
        <time>2016-09-13T12:44:53Z</time>
      </trkpt>
      <trkpt lat="45.11763" lon="4.53622">
        <ele>1085.47</ele>
        <time>2016-09-13T12:45:10Z</time>
      </trkpt>
      <trkpt lat="45.11781" lon="4.53623">
        <ele>1085.47</ele>
        <time>2016-09-13T12:45:25Z</time>
      </trkpt>
      <trkpt lat="45.11791" lon="4.53617">
        <ele>1085.47</ele>
        <time>2016-09-13T12:45:41Z</time>
      </trkpt>
      <trkpt lat="45.11797" lon="4.53617">
        <ele>1086.91</ele>
        <time>2016-09-13T12:45:50Z</time>
      </trkpt>
      <trkpt lat="45.11817" lon="4.53617">
        <ele>1088.35</ele>
        <time>2016-09-13T12:46:09Z</time>
      </trkpt>
      <trkpt lat="45.11819" lon="4.53615">
        <ele>1086.91</ele>
        <time>2016-09-13T12:46:12Z</time>
      </trkpt>
      <trkpt lat="45.11824" lon="4.5361">
        <ele>1085.95</ele>
        <time>2016-09-13T12:46:28Z</time>
      </trkpt>
      <trkpt lat="45.11836" lon="4.53607">
        <ele>1087.87</ele>
        <time>2016-09-13T12:46:45Z</time>
      </trkpt>
      <trkpt lat="45.11849" lon="4.53603">
        <ele>1087.39</ele>
        <time>2016-09-13T12:47:03Z</time>
      </trkpt>
      <trkpt lat="45.11866" lon="4.53597">
        <ele>1087.39</ele>
        <time>2016-09-13T12:47:22Z</time>
      </trkpt>
      <trkpt lat="45.11881" lon="4.5359">
        <ele>1086.43</ele>
        <time>2016-09-13T12:47:41Z</time>
      </trkpt>
      <trkpt lat="45.11898" lon="4.53583">
        <ele>1086.43</ele>
        <time>2016-09-13T12:47:55Z</time>
      </trkpt>
      <trkpt lat="45.11911" lon="4.53582">
        <ele>1085.95</ele>
        <time>2016-09-13T12:48:14Z</time>
      </trkpt>
      <trkpt lat="45.1192" lon="4.53565">
        <ele>1085.95</ele>
        <time>2016-09-13T12:48:31Z</time>
      </trkpt>
      <trkpt lat="45.11924" lon="4.53553">
        <ele>1085.95</ele>
        <time>2016-09-13T12:48:47Z</time>
      </trkpt>
      <trkpt lat="45.11938" lon="4.53541">
        <ele>1084.99</ele>
        <time>2016-09-13T12:49:07Z</time>
      </trkpt>
      <trkpt lat="45.11945" lon="4.53537">
        <ele>1084.99</ele>
        <time>2016-09-13T12:49:20Z</time>
      </trkpt>
      <trkpt lat="45.11945" lon="4.53534">
        <ele>1084.5</ele>
        <time>2016-09-13T12:49:35Z</time>
      </trkpt>
      <trkpt lat="45.11953" lon="4.53515">
        <ele>1084.5</ele>
        <time>2016-09-13T12:49:50Z</time>
      </trkpt>
      <trkpt lat="45.11963" lon="4.53513">
        <ele>1084.5</ele>
        <time>2016-09-13T12:50:06Z</time>
      </trkpt>
      <trkpt lat="45.1198" lon="4.53503">
        <ele>1084.02</ele>
        <time>2016-09-13T12:50:23Z</time>
      </trkpt>
      <trkpt lat="45.11994" lon="4.53485">
        <ele>1084.99</ele>
        <time>2016-09-13T12:50:40Z</time>
      </trkpt>
      <trkpt lat="45.11995" lon="4.53478">
        <ele>1084.02</ele>
        <time>2016-09-13T12:50:47Z</time>
      </trkpt>
      <trkpt lat="45.11996" lon="4.53457">
        <ele>1082.58</ele>
        <time>2016-09-13T12:51:05Z</time>
      </trkpt>
      <trkpt lat="45.11991" lon="4.53435">
        <ele>1082.1</ele>
        <time>2016-09-13T12:51:21Z</time>
      </trkpt>
      <trkpt lat="45.11987" lon="4.53416">
        <ele>1082.1</ele>
        <time>2016-09-13T12:51:37Z</time>
      </trkpt>
      <trkpt lat="45.1198" lon="4.53401">
        <ele>1082.1</ele>
        <time>2016-09-13T12:51:54Z</time>
      </trkpt>
      <trkpt lat="45.11976" lon="4.53401">
        <ele>1081.62</ele>
        <time>2016-09-13T12:52:10Z</time>
      </trkpt>
      <trkpt lat="45.11974" lon="4.53401">
        <ele>1080.66</ele>
        <time>2016-09-13T12:52:31Z</time>
      </trkpt>
      <trkpt lat="45.11974" lon="4.53402">
        <ele>1082.58</ele>
        <time>2016-09-13T12:52:38Z</time>
      </trkpt>
    </trkseg>
  </trk>
</gpx>